PWSweather.com
Personal Weather Stations
Station Observations
KMILAPEE3
Lapeer Michigan, Lapeer, MI 48446

Lapeer MichiganLapeer, MI 48446

Lat: 43.057, Lon: -83.362

Elevation: 897

Station Type: Oregon Scientific WMR-968

Latest ConditionsUpdated 12:16:28 PM EDT Monday, May 30, 2016
Currently Today's Max Today's Min Today's Average
Temperature 76.5°F24.7°C 76.5°F24.7°C 61.3°F16.3°C 66.5°F19.2°C
Dew Point 53.2°F11.8°C 58.8°F14.9°C 43.1°F6.2°C 51.4°F10.8°C
Winds 4.6 mph WNW7.4 kmh WNW 9.6 mph WNW15.4 kmh WNW - 3.9 mph 6.3 kmh
Wind Gusts 13.9 mph22.4 kmh 15.2 mph24.5 kmh - -
Humidity 45% 72% 42% 59%
Pressure 29.03 in983.1 mb 29.06 in984.1 mb 28.97 in981.0 mb -
Hour Temp Dew Point Humidity Winds Wind Gusts Pressure Precip Precip Rate Daily Precip Total
12:16 PM 76.5°F24.7°C 53.2°F11.8°C 45% 4.8 mph WNW7.7 kmh WNW 13.9 mph22.4 kmh 29.03 in983.1 mb 0.00 in0.0 mm 0.00 in0.0 mm 0.00 in0.0 mm
12:15 PM 76.5°F24.7°C 53.2°F11.8°C 45% 6.3 mph WNW10.1 kmh WNW 13.9 mph22.4 kmh 29.03 in983.1 mb 0.00 in0.0 mm 0.00 in0.0 mm 0.00 in0.0 mm
12:14 PM 76.3°F24.6°C 53.1°F11.7°C 45% 7.9 mph WNW12.7 kmh WNW 13.9 mph22.4 kmh 29.03 in983.1 mb 0.00 in0.0 mm 0.00 in0.0 mm 0.00 in0.0 mm
12:13 PM 76.3°F24.6°C 53.1°F11.7°C 45% 8.1 mph W13.0 kmh W 13.9 mph22.4 kmh 29.03 in983.1 mb 0.00 in0.0 mm 0.00 in0.0 mm 0.00 in0.0 mm
12:12 PM 76.3°F24.6°C 53.1°F11.7°C 45% 7.2 mph WNW11.6 kmh WNW 13.9 mph22.4 kmh 29.03 in983.1 mb 0.00 in0.0 mm 0.00 in0.0 mm 0.00 in0.0 mm
12:11 PM 76.3°F24.6°C 53.1°F11.7°C 45% 5.6 mph NW9.0 kmh NW 11.7 mph18.8 kmh 29.03 in983.1 mb 0.00 in0.0 mm 0.00 in0.0 mm 0.00 in0.0 mm
12:10 PM 76.3°F24.6°C 53.1°F11.7°C 45% 5.7 mph NW9.2 kmh NW 11.0 mph17.7 kmh 29.03 in983.1 mb 0.00 in0.0 mm 0.00 in0.0 mm 0.00 in0.0 mm
12:09 PM 76.3°F24.6°C 53.1°F11.7°C 45% 6.6 mph NW10.6 kmh NW 11.0 mph17.7 kmh 29.03 in983.1 mb 0.00 in0.0 mm 0.00 in0.0 mm 0.00 in0.0 mm
12:08 PM 76.3°F24.6°C 53.1°F11.7°C 45% 4.3 mph WNW6.9 kmh WNW 11.0 mph17.7 kmh 29.03 in983.1 mb 0.00 in0.0 mm 0.00 in0.0 mm 0.00 in0.0 mm
12:07 PM 76.3°F24.6°C 53.1°F11.7°C 45% 3.5 mph NW5.6 kmh NW 10.4 mph16.7 kmh 29.03 in983.1 mb 0.00 in0.0 mm 0.00 in0.0 mm 0.00 in0.0 mm
12:06 PM 76.3°F24.6°C 53.1°F11.7°C 45% 5.0 mph NW8.0 kmh NW 12.0 mph19.3 kmh 29.03 in983.1 mb 0.00 in0.0 mm 0.00 in0.0 mm 0.00 in0.0 mm
12:05 PM 76.3°F24.6°C 53.1°F11.7°C 45% 6.2 mph NW10.0 kmh NW 12.0 mph19.3 kmh 29.03 in983.1 mb 0.00 in0.0 mm 0.00 in0.0 mm 0.00 in0.0 mm
12:04 PM 76.3°F24.6°C 53.1°F11.7°C 45% 6.6 mph NW10.6 kmh NW 12.0 mph19.3 kmh 29.03 in983.1 mb 0.00 in0.0 mm 0.00 in0.0 mm 0.00 in0.0 mm
12:03 PM 76.3°F24.6°C 53.1°F11.7°C 45% 7.7 mph W12.4 kmh W 12.0 mph19.3 kmh 29.03 in983.1 mb 0.00 in0.0 mm 0.00 in0.0 mm 0.00 in0.0 mm
12:02 PM 76.5°F24.7°C 53.2°F11.8°C 45% 7.2 mph W11.6 kmh W 12.0 mph19.3 kmh 29.03 in983.1 mb 0.00 in0.0 mm 0.00 in0.0 mm 0.00 in0.0 mm
12:01 PM 76.3°F24.6°C 53.1°F11.7°C 45% 6.2 mph WNW10.0 kmh WNW 12.0 mph19.3 kmh 29.03 in983.1 mb 0.00 in0.0 mm 0.00 in0.0 mm 0.00 in0.0 mm
12:00 PM 76.3°F24.6°C 53.1°F11.7°C 45% 4.9 mph W7.9 kmh W 12.0 mph19.3 kmh 29.03 in983.1 mb 0.00 in0.0 mm 0.00 in0.0 mm 0.00 in0.0 mm
11:59 AM 76.1°F24.5°C 52.9°F11.6°C 45% 4.6 mph WSW7.4 kmh WSW 12.0 mph19.3 kmh 29.03 in983.1 mb 0.00 in0.0 mm 0.00 in0.0 mm 0.00 in0.0 mm
11:58 AM 75.9°F24.4°C 52.7°F11.5°C 45% 5.6 mph WSW9.0 kmh WSW 12.6 mph20.3 kmh 29.03 in983.1 mb 0.00 in0.0 mm 0.00 in0.0 mm 0.00 in0.0 mm
11:57 AM 75.9°F24.4°C 52.7°F11.5°C 45% 6.4 mph W10.3 kmh W 13.9 mph22.4 kmh 29.03 in983.1 mb 0.00 in0.0 mm 0.00 in0.0 mm 0.00 in0.0 mm
11:56 AM 75.7°F24.3°C 52.5°F11.4°C 45% 7.1 mph W11.4 kmh W 13.9 mph22.4 kmh 29.03 in983.1 mb 0.00 in0.0 mm 0.00 in0.0 mm 0.00 in0.0 mm
11:55 AM 75.7°F24.3°C 51.8°F11.0°C 43% 6.8 mph W10.9 kmh W 13.9 mph22.4 kmh 29.03 in983.1 mb 0.00 in0.0 mm 0.00 in0.0 mm 0.00 in0.0 mm
11:54 AM 75.7°F24.3°C 51.8°F11.0°C 43% 6.1 mph W9.8 kmh W 13.9 mph22.4 kmh 29.03 in983.1 mb 0.00 in0.0 mm 0.00 in0.0 mm 0.00 in0.0 mm
11:53 AM 75.7°F24.3°C 51.0°F10.6°C 42% 5.7 mph W9.2 kmh W 13.9 mph22.4 kmh 29.03 in983.1 mb 0.00 in0.0 mm 0.00 in0.0 mm 0.00 in0.0 mm
11:52 AM 75.7°F24.3°C 51.8°F11.0°C 43% 7.2 mph WNW11.6 kmh WNW 13.9 mph22.4 kmh 29.03 in983.1 mb 0.00 in0.0 mm 0.00 in0.0 mm 0.00 in0.0 mm
11:51 AM 75.7°F24.3°C 52.5°F11.4°C 45% 8.6 mph NW13.8 kmh NW 13.9 mph22.4 kmh 29.03 in983.1 mb 0.00 in0.0 mm 0.00 in0.0 mm 0.00 in0.0 mm
11:50 AM 75.6°F24.2°C 52.4°F11.3°C 45% 8.7 mph NW14.0 kmh NW 13.9 mph22.4 kmh 29.03 in983.1 mb 0.00 in0.0 mm 0.00 in0.0 mm 0.00 in0.0 mm
11:49 AM 75.7°F24.3°C 52.5°F11.4°C 45% 5.0 mph WNW8.0 kmh WNW 13.9 mph22.4 kmh 29.03 in983.1 mb 0.00 in0.0 mm 0.00 in0.0 mm 0.00 in0.0 mm
11:48 AM 75.7°F24.3°C 52.5°F11.4°C 45% 4.1 mph WNW6.6 kmh WNW 13.9 mph22.4 kmh 29.03 in983.1 mb 0.00 in0.0 mm 0.00 in0.0 mm 0.00 in0.0 mm
11:47 AM 75.7°F24.3°C 52.5°F11.4°C 45% 5.6 mph NW9.0 kmh NW 11.0 mph17.7 kmh 29.03 in983.1 mb 0.00 in0.0 mm 0.00 in0.0 mm 0.00 in0.0 mm
11:46 AM 75.7°F24.3°C 52.5°F11.4°C 45% 6.4 mph NNW10.3 kmh NNW 12.0 mph19.3 kmh 29.03 in983.1 mb 0.00 in0.0 mm 0.00 in0.0 mm 0.00 in0.0 mm
11:45 AM 75.9°F24.4°C 53.4°F11.9°C 46% 6.2 mph NW10.0 kmh NW 12.0 mph19.3 kmh 29.03 in983.1 mb 0.00 in0.0 mm 0.00 in0.0 mm 0.00 in0.0 mm
11:44 AM 75.9°F24.4°C 53.4°F11.9°C 46% 6.0 mph WNW9.7 kmh WNW 12.0 mph19.3 kmh 29.03 in983.1 mb 0.00 in0.0 mm 0.00 in0.0 mm 0.00 in0.0 mm
11:43 AM 75.9°F24.4°C 53.4°F11.9°C 46% 5.8 mph WNW9.3 kmh WNW 12.0 mph19.3 kmh 29.03 in983.1 mb 0.00 in0.0 mm 0.00 in0.0 mm 0.00 in0.0 mm
11:42 AM 75.9°F24.4°C 53.4°F11.9°C 46% 5.0 mph W8.0 kmh W 12.0 mph19.3 kmh 29.03 in983.1 mb 0.00 in0.0 mm 0.00 in0.0 mm 0.00 in0.0 mm
11:41 AM 75.9°F24.4°C 53.4°F11.9°C 46% 4.4 mph WNW7.1 kmh WNW 12.0 mph19.3 kmh 29.03 in983.1 mb 0.00 in0.0 mm 0.00 in0.0 mm 0.00 in0.0 mm
11:40 AM 75.7°F24.3°C 52.5°F11.4°C 45% 5.3 mph WNW8.5 kmh WNW 12.0 mph19.3 kmh 29.03 in983.1 mb 0.00 in0.0 mm 0.00 in0.0 mm 0.00 in0.0 mm
11:39 AM 75.7°F24.3°C 52.5°F11.4°C 45% 6.7 mph NW10.8 kmh NW 12.0 mph19.3 kmh 29.03 in983.1 mb 0.00 in0.0 mm 0.00 in0.0 mm 0.00 in0.0 mm
11:38 AM 75.9°F24.4°C 52.7°F11.5°C 45% 8.6 mph NW13.8 kmh NW 12.0 mph19.3 kmh 29.03 in983.1 mb 0.00 in0.0 mm 0.00 in0.0 mm 0.00 in0.0 mm
11:37 AM 75.9°F24.4°C 51.9°F11.1°C 43% 7.3 mph WNW11.7 kmh WNW 12.0 mph19.3 kmh 29.03 in983.1 mb 0.00 in0.0 mm 0.00 in0.0 mm 0.00 in0.0 mm
11:36 AM 76.1°F24.5°C 52.1°F11.2°C 43% 6.4 mph NW10.3 kmh NW 12.0 mph19.3 kmh 29.03 in983.1 mb 0.00 in0.0 mm 0.00 in0.0 mm 0.00 in0.0 mm
11:35 AM 76.3°F24.6°C 53.8°F12.1°C 46% 6.1 mph NW9.8 kmh NW 12.0 mph19.3 kmh 29.03 in983.1 mb 0.00 in0.0 mm 0.00 in0.0 mm 0.00 in0.0 mm
11:34 AM 76.3°F24.6°C 53.8°F12.1°C 46% 6.3 mph WNW10.1 kmh WNW 15.2 mph24.5 kmh 29.03 in983.1 mb 0.00 in0.0 mm 0.00 in0.0 mm 0.00 in0.0 mm
11:33 AM 76.5°F24.7°C 54.0°F12.2°C 46% 6.3 mph W10.1 kmh W 15.2 mph24.5 kmh 29.03 in983.1 mb 0.00 in0.0 mm 0.00 in0.0 mm 0.00 in0.0 mm
11:32 AM 76.3°F24.6°C 53.8°F12.1°C 46% 5.4 mph WNW8.7 kmh WNW 15.2 mph24.5 kmh 29.03 in983.1 mb 0.00 in0.0 mm 0.00 in0.0 mm 0.00 in0.0 mm
11:31 AM 76.3°F24.6°C 54.5°F12.5°C 47% 6.5 mph NW10.5 kmh NW 15.2 mph24.5 kmh 29.03 in983.1 mb 0.00 in0.0 mm 0.00 in0.0 mm 0.00 in0.0 mm
11:30 AM 76.3°F24.6°C 53.8°F12.1°C 46% 5.8 mph NW9.3 kmh NW 15.2 mph24.5 kmh 29.03 in983.1 mb 0.00 in0.0 mm 0.00 in0.0 mm 0.00 in0.0 mm
11:29 AM 76.3°F24.6°C 53.8°F12.1°C 46% 3.9 mph WNW6.3 kmh WNW 15.2 mph24.5 kmh 29.03 in983.1 mb 0.00 in0.0 mm 0.00 in0.0 mm 0.00 in0.0 mm
11:28 AM 76.3°F24.6°C 53.8°F12.1°C 46% 4.9 mph WNW7.9 kmh WNW 15.2 mph24.5 kmh 29.03 in983.1 mb 0.00 in0.0 mm 0.00 in0.0 mm 0.00 in0.0 mm
11:27 AM 76.3°F24.6°C 53.8°F12.1°C 46% 6.6 mph WNW10.6 kmh WNW 15.2 mph24.5 kmh 29.03 in983.1 mb 0.00 in0.0 mm 0.00 in0.0 mm 0.00 in0.0 mm
11:26 AM 76.3°F24.6°C 53.8°F12.1°C 46% 8.0 mph WNW12.9 kmh WNW 15.2 mph24.5 kmh 29.03 in983.1 mb 0.00 in0.0 mm 0.00 in0.0 mm 0.00 in0.0 mm
11:25 AM 76.3°F24.6°C 54.5°F12.5°C 47% 6.7 mph NW10.8 kmh NW 15.2 mph24.5 kmh 29.03 in983.1 mb 0.00 in0.0 mm 0.00 in0.0 mm 0.00 in0.0 mm
11:24 AM 76.5°F24.7°C 56.1°F13.4°C 49% 6.1 mph NNW9.8 kmh NNW 14.6 mph23.5 kmh 29.03 in983.1 mb 0.00 in0.0 mm 0.00 in0.0 mm 0.00 in0.0 mm
11:23 AM 76.3°F24.6°C 55.9°F13.3°C 49% 6.3 mph NNW10.1 kmh NNW 14.6 mph23.5 kmh 29.03 in983.1 mb 0.00 in0.0 mm 0.00 in0.0 mm 0.00 in0.0 mm
11:22 AM 76.1°F24.5°C 55.7°F13.2°C 49% 5.0 mph NNW8.0 kmh NNW 14.6 mph23.5 kmh 29.03 in983.1 mb 0.00 in0.0 mm 0.00 in0.0 mm 0.00 in0.0 mm
11:21 AM 76.1°F24.5°C 55.7°F13.2°C 49% 4.0 mph N6.4 kmh N 14.6 mph23.5 kmh 29.03 in983.1 mb 0.00 in0.0 mm 0.00 in0.0 mm 0.00 in0.0 mm
11:20 AM 75.9°F24.4°C 54.8°F12.7°C 48% 3.5 mph N5.6 kmh N 14.6 mph23.5 kmh 29.03 in983.1 mb 0.00 in0.0 mm 0.00 in0.0 mm 0.00 in0.0 mm
11:19 AM 75.6°F24.2°C 54.6°F12.6°C 48% 4.1 mph 6.6 kmh 14.6 mph23.5 kmh 29.03 in983.1 mb 0.00 in0.0 mm 0.00 in0.0 mm 0.00 in0.0 mm
11:18 AM 75.6°F24.2°C 54.6°F12.6°C 48% 5.8 mph NNW9.3 kmh NNW 14.6 mph23.5 kmh 29.03 in983.1 mb 0.00 in0.0 mm 0.00 in0.0 mm 0.00 in0.0 mm
11:17 AM 75.4°F24.1°C 54.4°F12.4°C 48% 7.5 mph NW12.1 kmh NW 14.6 mph23.5 kmh 29.03 in983.1 mb 0.00 in0.0 mm 0.00 in0.0 mm 0.00 in0.0 mm
11:16 AM 75.4°F24.1°C 54.4°F12.4°C 48% 6.9 mph WNW11.1 kmh WNW 14.6 mph23.5 kmh 29.03 in983.1 mb 0.00 in0.0 mm 0.00 in0.0 mm 0.00 in0.0 mm
11:15 AM 75.4°F24.1°C 54.4°F12.4°C 48% 5.0 mph NW8.0 kmh NW 14.6 mph23.5 kmh 29.03 in983.1 mb 0.00 in0.0 mm 0.00 in0.0 mm 0.00 in0.0 mm
11:14 AM 75.2°F24.0°C 54.2°F12.3°C 48% 3.4 mph NW5.5 kmh NW 12.6 mph20.3 kmh 29.03 in983.1 mb 0.00 in0.0 mm 0.00 in0.0 mm 0.00 in0.0 mm
11:13 AM 75.2°F24.0°C 53.5°F11.9°C 47% 4.4 mph WNW7.1 kmh WNW 12.6 mph20.3 kmh 29.03 in983.1 mb 0.00 in0.0 mm 0.00 in0.0 mm 0.00 in0.0 mm
11:12 AM 75.2°F24.0°C 53.5°F11.9°C 47% 7.0 mph W11.3 kmh W 12.6 mph20.3 kmh 29.03 in983.1 mb 0.00 in0.0 mm 0.00 in0.0 mm 0.00 in0.0 mm
11:11 AM 75.2°F24.0°C 53.5°F11.9°C 47% 8.7 mph W14.0 kmh W 12.6 mph20.3 kmh 29.03 in983.1 mb 0.00 in0.0 mm 0.00 in0.0 mm 0.00 in0.0 mm
11:10 AM 75.2°F24.0°C 53.5°F11.9°C 47% 6.3 mph W10.1 kmh W 12.6 mph20.3 kmh 29.03 in983.1 mb 0.00 in0.0 mm 0.00 in0.0 mm 0.00 in0.0 mm
11:09 AM 75.2°F24.0°C 54.2°F12.3°C 48% 4.9 mph WNW7.9 kmh WNW 12.6 mph20.3 kmh 29.03 in983.1 mb 0.00 in0.0 mm 0.00 in0.0 mm 0.00 in0.0 mm
11:08 AM 75.2°F24.0°C 54.9°F12.7°C 49% 6.3 mph W10.1 kmh W 12.6 mph20.3 kmh 29.03 in983.1 mb 0.00 in0.0 mm 0.00 in0.0 mm 0.00 in0.0 mm
11:07 AM 75.2°F24.0°C 54.9°F12.7°C 49% 6.5 mph W10.5 kmh W 12.6 mph20.3 kmh 29.03 in983.1 mb 0.00 in0.0 mm 0.00 in0.0 mm 0.00 in0.0 mm
11:06 AM 75.2°F24.0°C 54.9°F12.7°C 49% 6.8 mph W10.9 kmh W 12.6 mph20.3 kmh 29.03 in983.1 mb 0.00 in0.0 mm 0.00 in0.0 mm 0.00 in0.0 mm
11:05 AM 75.2°F24.0°C 54.9°F12.7°C 49% 6.9 mph W11.1 kmh W 12.6 mph20.3 kmh 29.03 in983.1 mb 0.00 in0.0 mm 0.00 in0.0 mm 0.00 in0.0 mm
11:04 AM 75.0°F23.9°C 54.7°F12.6°C 49% 7.2 mph W11.6 kmh W 12.6 mph20.3 kmh 29.03 in983.1 mb 0.00 in0.0 mm 0.00 in0.0 mm 0.00 in0.0 mm
11:03 AM 75.0°F23.9°C 54.7°F12.6°C 49% 7.4 mph W11.9 kmh W 12.6 mph20.3 kmh 29.03 in983.1 mb 0.00 in0.0 mm 0.00 in0.0 mm 0.00 in0.0 mm
11:02 AM 75.0°F23.9°C 55.4°F13.0°C 50% 5.9 mph WNW9.5 kmh WNW 12.6 mph20.3 kmh 29.03 in983.1 mb 0.00 in0.0 mm 0.00 in0.0 mm 0.00 in0.0 mm
11:01 AM 75.0°F23.9°C 55.4°F13.0°C 50% 5.7 mph WNW9.2 kmh WNW 14.6 mph23.5 kmh 29.03 in983.1 mb 0.00 in0.0 mm 0.00 in0.0 mm 0.00 in0.0 mm
11:00 AM 75.0°F23.9°C 55.4°F13.0°C 50% 6.0 mph NW9.7 kmh NW 14.6 mph23.5 kmh 29.03 in983.1 mb 0.00 in0.0 mm 0.00 in0.0 mm 0.00 in0.0 mm
10:59 AM 75.0°F23.9°C 55.4°F13.0°C 50% 7.0 mph NW11.3 kmh NW 15.2 mph24.5 kmh 29.03 in983.1 mb 0.00 in0.0 mm 0.00 in0.0 mm 0.00 in0.0 mm
10:58 AM 74.8°F23.8°C 55.2°F12.9°C 50% 5.9 mph NW9.5 kmh NW 15.2 mph24.5 kmh 29.03 in983.1 mb 0.00 in0.0 mm 0.00 in0.0 mm 0.00 in0.0 mm
10:57 AM 74.8°F23.8°C 55.2°F12.9°C 50% 5.4 mph NW8.7 kmh NW 15.2 mph24.5 kmh 29.03 in983.1 mb 0.00 in0.0 mm 0.00 in0.0 mm 0.00 in0.0 mm
10:56 AM 74.7°F23.7°C 55.1°F12.8°C 50% 4.8 mph NW7.7 kmh NW 15.2 mph24.5 kmh 29.03 in983.1 mb 0.00 in0.0 mm 0.00 in0.0 mm 0.00 in0.0 mm
10:55 AM 74.7°F23.7°C 55.1°F12.8°C 50% 4.7 mph N7.6 kmh N 15.2 mph24.5 kmh 29.03 in983.1 mb 0.00 in0.0 mm 0.00 in0.0 mm 0.00 in0.0 mm
10:54 AM 74.7°F23.7°C 55.1°F12.8°C 50% 5.9 mph NW9.5 kmh NW 15.2 mph24.5 kmh 29.03 in983.1 mb 0.00 in0.0 mm 0.00 in0.0 mm 0.00 in0.0 mm
10:53 AM 74.7°F23.7°C 55.1°F12.8°C 50% 7.6 mph NW12.2 kmh NW 15.2 mph24.5 kmh 29.03 in983.1 mb 0.00 in0.0 mm 0.00 in0.0 mm 0.00 in0.0 mm
10:52 AM 74.7°F23.7°C 55.1°F12.8°C 50% 9.2 mph WNW14.8 kmh WNW 15.2 mph24.5 kmh 29.03 in983.1 mb 0.00 in0.0 mm 0.00 in0.0 mm 0.00 in0.0 mm
10:51 AM 74.7°F23.7°C 55.1°F12.8°C 50% 8.6 mph WNW13.8 kmh WNW 15.2 mph24.5 kmh 29.03 in983.1 mb 0.00 in0.0 mm 0.00 in0.0 mm 0.00 in0.0 mm
10:50 AM 74.7°F23.7°C 55.1°F12.8°C 50% 7.0 mph WNW11.3 kmh WNW 15.2 mph24.5 kmh 29.03 in983.1 mb 0.00 in0.0 mm 0.00 in0.0 mm 0.00 in0.0 mm
10:49 AM 74.7°F23.7°C 55.1°F12.8°C 50% 6.4 mph NW10.3 kmh NW 14.6 mph23.5 kmh 29.03 in983.1 mb 0.00 in0.0 mm 0.00 in0.0 mm 0.00 in0.0 mm
10:48 AM 74.7°F23.7°C 55.1°F12.8°C 50% 7.9 mph WNW12.7 kmh WNW 14.6 mph23.5 kmh 29.03 in983.1 mb 0.00 in0.0 mm 0.00 in0.0 mm 0.00 in0.0 mm
10:47 AM 74.8°F23.8°C 55.2°F12.9°C 50% 9.6 mph WNW15.4 kmh WNW 14.6 mph23.5 kmh 29.03 in983.1 mb 0.00 in0.0 mm 0.00 in0.0 mm 0.00 in0.0 mm
10:46 AM 74.8°F23.8°C 55.8°F13.2°C 52% 8.1 mph WNW13.0 kmh WNW 14.6 mph23.5 kmh 29.03 in983.1 mb 0.00 in0.0 mm 0.00 in0.0 mm 0.00 in0.0 mm
10:45 AM 74.8°F23.8°C 55.8°F13.2°C 52% 6.2 mph W10.0 kmh W 14.6 mph23.5 kmh 29.03 in983.1 mb 0.00 in0.0 mm 0.00 in0.0 mm 0.00 in0.0 mm
10:44 AM 74.8°F23.8°C 55.8°F13.2°C 52% 5.8 mph W9.3 kmh W 14.6 mph23.5 kmh 29.03 in983.1 mb 0.00 in0.0 mm 0.00 in0.0 mm 0.00 in0.0 mm
10:43 AM 74.8°F23.8°C 56.5°F13.6°C 53% 6.2 mph W10.0 kmh W 11.0 mph17.7 kmh 29.03 in983.1 mb 0.00 in0.0 mm 0.00 in0.0 mm 0.00 in0.0 mm
10:42 AM 74.8°F23.8°C 56.5°F13.6°C 53% 6.7 mph WNW10.8 kmh WNW 11.0 mph17.7 kmh 29.03 in983.1 mb 0.00 in0.0 mm 0.00 in0.0 mm 0.00 in0.0 mm
10:41 AM 74.8°F23.8°C 56.5°F13.6°C 53% 4.7 mph NW7.6 kmh NW 11.0 mph17.7 kmh 29.03 in983.1 mb 0.00 in0.0 mm 0.00 in0.0 mm 0.00 in0.0 mm
10:40 AM 74.7°F23.7°C 56.4°F13.6°C 53% 3.4 mph N5.5 kmh N 8.4 mph13.5 kmh 29.03 in983.1 mb 0.00 in0.0 mm 0.00 in0.0 mm 0.00 in0.0 mm
10:39 AM 74.7°F23.7°C 56.4°F13.6°C 53% 3.7 mph N6.0 kmh N 9.1 mph14.6 kmh 29.03 in983.1 mb 0.00 in0.0 mm 0.00 in0.0 mm 0.00 in0.0 mm
10:38 AM 74.7°F23.7°C 56.4°F13.6°C 53% 4.0 mph N6.4 kmh N 9.1 mph14.6 kmh 29.03 in983.1 mb 0.00 in0.0 mm 0.00 in0.0 mm 0.00 in0.0 mm
10:37 AM 74.5°F23.6°C 56.2°F13.4°C 53% 4.0 mph NW6.4 kmh NW 9.1 mph14.6 kmh 29.03 in983.1 mb 0.00 in0.0 mm 0.00 in0.0 mm 0.00 in0.0 mm
10:36 AM 74.5°F23.6°C 56.2°F13.4°C 53% 4.6 mph WNW7.4 kmh WNW 9.1 mph14.6 kmh 29.03 in983.1 mb 0.00 in0.0 mm 0.00 in0.0 mm 0.00 in0.0 mm
10:35 AM 74.5°F23.6°C 56.2°F13.4°C 53% 5.0 mph NW8.0 kmh NW 9.1 mph14.6 kmh 29.03 in983.1 mb 0.00 in0.0 mm 0.00 in0.0 mm 0.00 in0.0 mm
10:34 AM 74.5°F23.6°C 56.8°F13.8°C 54% 4.1 mph NNW6.6 kmh NNW 9.1 mph14.6 kmh 29.03 in983.1 mb 0.00 in0.0 mm 0.00 in0.0 mm 0.00 in0.0 mm
10:33 AM 74.5°F23.6°C 56.8°F13.8°C 54% 4.1 mph N6.6 kmh N 9.1 mph14.6 kmh 29.03 in983.1 mb 0.00 in0.0 mm 0.00 in0.0 mm 0.00 in0.0 mm
10:32 AM 74.5°F23.6°C 56.8°F13.8°C 54% 5.0 mph NW8.0 kmh NW 9.1 mph14.6 kmh 29.03 in983.1 mb 0.00 in0.0 mm 0.00 in0.0 mm 0.00 in0.0 mm
10:31 AM 74.5°F23.6°C 56.8°F13.8°C 54% 5.0 mph WNW8.0 kmh WNW 9.1 mph14.6 kmh 29.03 in983.1 mb 0.00 in0.0 mm 0.00 in0.0 mm 0.00 in0.0 mm
10:30 AM 74.5°F23.6°C 56.8°F13.8°C 54% 4.8 mph WNW7.7 kmh WNW 9.1 mph14.6 kmh 29.03 in983.1 mb 0.00 in0.0 mm 0.00 in0.0 mm 0.00 in0.0 mm
10:29 AM 74.5°F23.6°C 57.4°F14.1°C 55% 4.8 mph NW7.7 kmh NW 9.1 mph14.6 kmh 29.03 in983.1 mb 0.00 in0.0 mm 0.00 in0.0 mm 0.00 in0.0 mm
10:28 AM 74.5°F23.6°C 57.4°F14.1°C 55% 4.9 mph NNW7.9 kmh NNW 9.1 mph14.6 kmh 29.03 in983.1 mb 0.00 in0.0 mm 0.00 in0.0 mm 0.00 in0.0 mm
10:27 AM 74.3°F23.5°C 57.2°F14.0°C 55% 6.1 mph N9.8 kmh N 9.1 mph14.6 kmh 29.03 in983.1 mb 0.00 in0.0 mm 0.00 in0.0 mm 0.00 in0.0 mm
10:26 AM 74.1°F23.4°C 57.0°F13.9°C 55% 6.9 mph N11.1 kmh N 9.1 mph14.6 kmh 29.03 in983.1 mb 0.00 in0.0 mm 0.00 in0.0 mm 0.00 in0.0 mm
10:25 AM 74.1°F23.4°C 57.0°F13.9°C 55% 7.3 mph N11.7 kmh N 9.1 mph14.6 kmh 29.03 in983.1 mb 0.00 in0.0 mm 0.00 in0.0 mm 0.00 in0.0 mm
10:24 AM 73.9°F23.3°C 56.2°F13.4°C 54% 4.1 mph WNW6.6 kmh WNW 9.1 mph14.6 kmh 29.03 in983.1 mb 0.00 in0.0 mm 0.00 in0.0 mm 0.00 in0.0 mm
10:23 AM 73.8°F23.2°C 56.1°F13.4°C 54% 4.0 mph NW6.4 kmh NW 9.1 mph14.6 kmh 29.03 in983.1 mb 0.00 in0.0 mm 0.00 in0.0 mm 0.00 in0.0 mm
10:22 AM 73.8°F23.2°C 56.1°F13.4°C 54% 4.0 mph NNW6.4 kmh NNW 12.0 mph19.3 kmh 29.03 in983.1 mb 0.00 in0.0 mm 0.00 in0.0 mm 0.00 in0.0 mm
10:21 AM 73.8°F23.2°C 56.8°F13.8°C 55% 4.0 mph NNW6.4 kmh NNW 12.0 mph19.3 kmh 29.03 in983.1 mb 0.00 in0.0 mm 0.00 in0.0 mm 0.00 in0.0 mm
10:20 AM 73.8°F23.2°C 56.8°F13.8°C 55% 4.0 mph NNW6.4 kmh NNW 12.0 mph19.3 kmh 29.03 in983.1 mb 0.00 in0.0 mm 0.00 in0.0 mm 0.00 in0.0 mm
10:19 AM 73.6°F23.1°C 56.6°F13.7°C 55% 4.2 mph NW6.8 kmh NW 12.0 mph19.3 kmh 29.03 in983.1 mb 0.00 in0.0 mm 0.00 in0.0 mm 0.00 in0.0 mm
10:18 AM 73.6°F23.1°C 56.6°F13.7°C 55% 4.3 mph NNW6.9 kmh NNW 12.0 mph19.3 kmh 29.03 in983.1 mb 0.00 in0.0 mm 0.00 in0.0 mm 0.00 in0.0 mm
10:17 AM 73.4°F23.0°C 56.4°F13.6°C 55% 5.1 mph NW8.2 kmh NW 12.0 mph19.3 kmh 29.03 in983.1 mb 0.00 in0.0 mm 0.00 in0.0 mm 0.00 in0.0 mm
10:16 AM 73.4°F23.0°C 56.4°F13.6°C 55% 6.0 mph NW9.7 kmh NW 12.0 mph19.3 kmh 29.03 in983.1 mb 0.00 in0.0 mm 0.00 in0.0 mm 0.00 in0.0 mm
10:15 AM 73.4°F23.0°C 56.4°F13.6°C 55% 5.8 mph NW9.3 kmh NW 12.0 mph19.3 kmh 29.03 in983.1 mb 0.00 in0.0 mm 0.00 in0.0 mm 0.00 in0.0 mm
10:14 AM 73.4°F23.0°C 56.4°F13.6°C 55% 5.7 mph NW9.2 kmh NW 12.0 mph19.3 kmh 29.03 in983.1 mb 0.00 in0.0 mm 0.00 in0.0 mm 0.00 in0.0 mm
10:13 AM 73.4°F23.0°C 57.0°F13.9°C 56% 5.1 mph NW8.2 kmh NW 12.0 mph19.3 kmh 29.03 in983.1 mb 0.00 in0.0 mm 0.00 in0.0 mm 0.00 in0.0 mm
10:12 AM 73.2°F22.9°C 56.8°F13.8°C 56% 4.1 mph NW6.6 kmh NW 12.0 mph19.3 kmh 29.03 in983.1 mb 0.00 in0.0 mm 0.00 in0.0 mm 0.00 in0.0 mm
10:11 AM 73.0°F22.8°C 56.6°F13.7°C 56% 4.8 mph NW7.7 kmh NW 12.0 mph19.3 kmh 29.03 in983.1 mb 0.00 in0.0 mm 0.00 in0.0 mm 0.00 in0.0 mm
10:10 AM 73.0°F22.8°C 56.6°F13.7°C 56% 5.3 mph NW8.5 kmh NW 12.0 mph19.3 kmh 29.03 in983.1 mb 0.00 in0.0 mm 0.00 in0.0 mm 0.00 in0.0 mm
10:09 AM 73.0°F22.8°C 56.0°F13.3°C 55% 6.1 mph NW9.8 kmh NW 12.0 mph19.3 kmh 29.03 in983.1 mb 0.00 in0.0 mm 0.00 in0.0 mm 0.00 in0.0 mm
10:06 AM 73.0°F22.8°C 56.6°F13.7°C 56% 6.6 mph WNW10.6 kmh WNW 12.0 mph19.3 kmh 29.03 in983.1 mb 0.00 in0.0 mm 0.00 in0.0 mm 0.00 in0.0 mm
10:05 AM 73.0°F22.8°C 57.2°F14.0°C 57% 4.6 mph WNW7.4 kmh WNW 12.0 mph19.3 kmh 29.03 in983.1 mb 0.00 in0.0 mm 0.00 in0.0 mm 0.00 in0.0 mm
10:04 AM 73.0°F22.8°C 57.2°F14.0°C 57% 4.9 mph W7.9 kmh W 9.1 mph14.6 kmh 29.03 in983.1 mb 0.00 in0.0 mm 0.00 in0.0 mm 0.00 in0.0 mm
10:03 AM 73.0°F22.8°C 57.2°F14.0°C 57% 5.6 mph W9.0 kmh W 9.1 mph14.6 kmh 29.06 in984.1 mb 0.00 in0.0 mm 0.00 in0.0 mm 0.00 in0.0 mm
10:02 AM 73.0°F22.8°C 57.2°F14.0°C 57% 5.7 mph WNW9.2 kmh WNW 9.1 mph14.6 kmh 29.06 in984.1 mb 0.00 in0.0 mm 0.00 in0.0 mm 0.00 in0.0 mm
10:01 AM 73.0°F22.8°C 57.2°F14.0°C 57% 5.6 mph W9.0 kmh W 9.1 mph14.6 kmh 29.06 in984.1 mb 0.00 in0.0 mm 0.00 in0.0 mm 0.00 in0.0 mm
10:00 AM 73.0°F22.8°C 57.7°F14.3°C 58% 5.0 mph NW8.0 kmh NW 9.1 mph14.6 kmh 29.06 in984.1 mb 0.00 in0.0 mm 0.00 in0.0 mm 0.00 in0.0 mm
09:59 AM 72.9°F22.7°C 57.6°F14.2°C 58% 5.2 mph NW8.4 kmh NW 9.1 mph14.6 kmh 29.06 in984.1 mb 0.00 in0.0 mm 0.00 in0.0 mm 0.00 in0.0 mm
09:58 AM 72.9°F22.7°C 57.6°F14.2°C 58% 4.7 mph NNW7.6 kmh NNW 9.1 mph14.6 kmh 29.06 in984.1 mb 0.00 in0.0 mm 0.00 in0.0 mm 0.00 in0.0 mm
09:57 AM 72.7°F22.6°C 57.5°F14.2°C 58% 4.7 mph NNW7.6 kmh NNW 9.1 mph14.6 kmh 29.06 in984.1 mb 0.00 in0.0 mm 0.00 in0.0 mm 0.00 in0.0 mm
09:56 AM 72.7°F22.6°C 57.5°F14.2°C 58% 4.7 mph NW7.6 kmh NW 9.1 mph14.6 kmh 29.06 in984.1 mb 0.00 in0.0 mm 0.00 in0.0 mm 0.00 in0.0 mm
09:55 AM 72.5°F22.5°C 57.3°F14.1°C 58% 3.9 mph NW6.3 kmh NW 9.1 mph14.6 kmh 29.06 in984.1 mb 0.00 in0.0 mm 0.00 in0.0 mm 0.00 in0.0 mm
09:54 AM 72.3°F22.4°C 57.1°F13.9°C 58% 3.7 mph NW6.0 kmh NW 7.8 mph12.6 kmh 29.06 in984.1 mb 0.00 in0.0 mm 0.00 in0.0 mm 0.00 in0.0 mm
09:53 AM 72.3°F22.4°C 57.1°F13.9°C 58% 5.0 mph NW8.0 kmh NW 7.8 mph12.6 kmh 29.06 in984.1 mb 0.00 in0.0 mm 0.00 in0.0 mm 0.00 in0.0 mm
09:52 AM 72.3°F22.4°C 57.1°F13.9°C 58% 5.3 mph NW8.5 kmh NW 7.8 mph12.6 kmh 29.06 in984.1 mb 0.00 in0.0 mm 0.00 in0.0 mm 0.00 in0.0 mm
09:51 AM 72.3°F22.4°C 57.1°F13.9°C 58% 4.7 mph NNW7.6 kmh NNW 7.8 mph12.6 kmh 29.06 in984.1 mb 0.00 in0.0 mm 0.00 in0.0 mm 0.00 in0.0 mm
09:50 AM 72.3°F22.4°C 57.1°F13.9°C 58% 4.9 mph NW7.9 kmh NW 7.8 mph12.6 kmh 29.06 in984.1 mb 0.00 in0.0 mm 0.00 in0.0 mm 0.00 in0.0 mm
09:49 AM 72.3°F22.4°C 57.6°F14.2°C 60% 4.4 mph NW7.1 kmh NW 7.8 mph12.6 kmh 29.06 in984.1 mb 0.00 in0.0 mm 0.00 in0.0 mm 0.00 in0.0 mm
09:48 AM 72.3°F22.4°C 57.6°F14.2°C 60% 3.1 mph WNW5.0 kmh WNW 11.7 mph18.8 kmh 29.03 in983.1 mb 0.00 in0.0 mm 0.00 in0.0 mm 0.00 in0.0 mm
09:47 AM 72.1°F22.3°C 57.4°F14.1°C 60% 3.4 mph WNW5.5 kmh WNW 11.7 mph18.8 kmh 29.03 in983.1 mb 0.00 in0.0 mm 0.00 in0.0 mm 0.00 in0.0 mm
09:46 AM 72.1°F22.3°C 57.4°F14.1°C 60% 4.2 mph WNW6.8 kmh WNW 11.7 mph18.8 kmh 29.03 in983.1 mb 0.00 in0.0 mm 0.00 in0.0 mm 0.00 in0.0 mm
09:45 AM 72.1°F22.3°C 57.4°F14.1°C 60% 4.9 mph NW7.9 kmh NW 11.7 mph18.8 kmh 29.03 in983.1 mb 0.00 in0.0 mm 0.00 in0.0 mm 0.00 in0.0 mm
09:44 AM 72.1°F22.3°C 57.4°F14.1°C 60% 5.1 mph NW8.2 kmh NW 11.7 mph18.8 kmh 29.03 in983.1 mb 0.00 in0.0 mm 0.00 in0.0 mm 0.00 in0.0 mm
09:43 AM 72.3°F22.4°C 57.6°F14.2°C 60% 5.3 mph WNW8.5 kmh WNW 14.6 mph23.5 kmh 29.03 in983.1 mb 0.00 in0.0 mm 0.00 in0.0 mm 0.00 in0.0 mm
09:42 AM 72.1°F22.3°C 58.0°F14.4°C 61% 5.5 mph NW8.9 kmh NW 14.6 mph23.5 kmh 29.03 in983.1 mb 0.00 in0.0 mm 0.00 in0.0 mm 0.00 in0.0 mm
09:41 AM 72.1°F22.3°C 58.0°F14.4°C 61% 6.0 mph NW9.7 kmh NW 14.6 mph23.5 kmh 29.03 in983.1 mb 0.00 in0.0 mm 0.00 in0.0 mm 0.00 in0.0 mm
09:40 AM 72.1°F22.3°C 58.0°F14.4°C 61% 5.2 mph NNW8.4 kmh NNW 14.6 mph23.5 kmh 29.03 in983.1 mb 0.00 in0.0 mm 0.00 in0.0 mm 0.00 in0.0 mm
09:39 AM 72.0°F22.2°C 57.9°F14.4°C 61% 4.1 mph NNW6.6 kmh NNW 14.6 mph23.5 kmh 29.03 in983.1 mb 0.00 in0.0 mm 0.00 in0.0 mm 0.00 in0.0 mm
09:38 AM 71.8°F22.1°C 57.7°F14.3°C 61% 3.8 mph NW6.1 kmh NW 14.6 mph23.5 kmh 29.03 in983.1 mb 0.00 in0.0 mm 0.00 in0.0 mm 0.00 in0.0 mm
09:37 AM 71.8°F22.1°C 57.7°F14.3°C 61% 5.0 mph NW8.0 kmh NW 14.6 mph23.5 kmh 29.03 in983.1 mb 0.00 in0.0 mm 0.00 in0.0 mm 0.00 in0.0 mm
09:36 AM 71.8°F22.1°C 57.7°F14.3°C 61% 8.2 mph NW13.2 kmh NW 14.6 mph23.5 kmh 29.03 in983.1 mb 0.00 in0.0 mm 0.00 in0.0 mm 0.00 in0.0 mm
09:34 AM 71.6°F22.0°C 57.5°F14.2°C 61% 7.4 mph W11.9 kmh W 14.6 mph23.5 kmh 29.03 in983.1 mb 0.00 in0.0 mm 0.00 in0.0 mm 0.00 in0.0 mm
09:33 AM 71.6°F22.0°C 58.0°F14.4°C 62% 6.2 mph WNW10.0 kmh WNW 12.0 mph19.3 kmh 29.06 in984.1 mb 0.00 in0.0 mm 0.00 in0.0 mm 0.00 in0.0 mm
09:32 AM 71.4°F21.9°C 57.8°F14.3°C 62% 5.5 mph WNW8.9 kmh WNW 9.1 mph14.6 kmh 29.06 in984.1 mb 0.00 in0.0 mm 0.00 in0.0 mm 0.00 in0.0 mm
09:31 AM 71.4°F21.9°C 57.8°F14.3°C 62% 4.2 mph W6.8 kmh W 9.1 mph14.6 kmh 29.06 in984.1 mb 0.00 in0.0 mm 0.00 in0.0 mm 0.00 in0.0 mm
09:30 AM 71.2°F21.8°C 57.7°F14.3°C 62% 3.9 mph W6.3 kmh W 9.1 mph14.6 kmh 29.06 in984.1 mb 0.00 in0.0 mm 0.00 in0.0 mm 0.00 in0.0 mm
09:29 AM 71.2°F21.8°C 57.7°F14.3°C 62% 5.1 mph W8.2 kmh W 9.1 mph14.6 kmh 29.06 in984.1 mb 0.00 in0.0 mm 0.00 in0.0 mm 0.00 in0.0 mm
09:28 AM 71.2°F21.8°C 57.7°F14.3°C 62% 5.2 mph W8.4 kmh W 9.1 mph14.6 kmh 29.06 in984.1 mb 0.00 in0.0 mm 0.00 in0.0 mm 0.00 in0.0 mm
09:27 AM 71.1°F21.7°C 57.6°F14.2°C 62% 4.0 mph W6.4 kmh W 9.1 mph14.6 kmh 29.06 in984.1 mb 0.00 in0.0 mm 0.00 in0.0 mm 0.00 in0.0 mm
09:26 AM 71.1°F21.7°C 57.6°F14.2°C 62% 3.2 mph WSW5.1 kmh WSW 9.1 mph14.6 kmh 29.06 in984.1 mb 0.00 in0.0 mm 0.00 in0.0 mm 0.00 in0.0 mm
09:25 AM 71.1°F21.7°C 57.6°F14.2°C 62% 4.3 mph WSW6.9 kmh WSW 9.1 mph14.6 kmh 29.06 in984.1 mb 0.00 in0.0 mm 0.00 in0.0 mm 0.00 in0.0 mm
09:24 AM 71.1°F21.7°C 57.5°F14.2°C 62% 5.5 mph W8.9 kmh W 9.1 mph14.6 kmh 29.06 in984.1 mb 0.00 in0.0 mm 0.00 in0.0 mm 0.00 in0.0 mm
09:23 AM 71.1°F21.7°C 57.5°F14.2°C 62% 6.0 mph W9.7 kmh W 9.1 mph14.6 kmh 29.06 in984.1 mb 0.00 in0.0 mm 0.00 in0.0 mm 0.00 in0.0 mm
09:22 AM 71.1°F21.7°C 57.5°F14.2°C 62% 6.3 mph W10.1 kmh W 9.1 mph14.6 kmh 29.06 in984.1 mb 0.00 in0.0 mm 0.00 in0.0 mm 0.00 in0.0 mm
09:21 AM 71.1°F21.7°C 57.5°F14.2°C 62% 5.2 mph W8.4 kmh W 9.2 mph14.8 kmh 29.06 in984.1 mb 0.00 in0.0 mm 0.00 in0.0 mm 0.00 in0.0 mm
09:20 AM 71.1°F21.7°C 58.1°F14.5°C 63% 5.0 mph W8.0 kmh W 9.2 mph14.8 kmh 29.06 in984.1 mb 0.00 in0.0 mm 0.00 in0.0 mm 0.00 in0.0 mm
09:19 AM 70.9°F21.6°C 57.9°F14.4°C 63% 5.4 mph W8.7 kmh W 11.7 mph18.8 kmh 29.06 in984.1 mb 0.00 in0.0 mm 0.00 in0.0 mm 0.00 in0.0 mm
09:18 AM 70.9°F21.6°C 57.9°F14.4°C 63% 4.8 mph W7.7 kmh W 11.7 mph18.8 kmh 29.03 in983.1 mb 0.00 in0.0 mm 0.00 in0.0 mm 0.00 in0.0 mm
09:17 AM 70.9°F21.6°C 57.9°F14.4°C 63% 3.9 mph W6.3 kmh W 11.7 mph18.8 kmh 29.03 in983.1 mb 0.00 in0.0 mm 0.00 in0.0 mm 0.00 in0.0 mm
09:16 AM 70.7°F21.5°C 57.7°F14.3°C 63% 4.0 mph W6.4 kmh W 11.7 mph18.8 kmh 29.03 in983.1 mb 0.00 in0.0 mm 0.00 in0.0 mm 0.00 in0.0 mm
09:15 AM 70.7°F21.5°C 57.7°F14.3°C 63% 4.3 mph W6.9 kmh W 11.7 mph18.8 kmh 29.03 in983.1 mb 0.00 in0.0 mm 0.00 in0.0 mm 0.00 in0.0 mm
09:14 AM 70.5°F21.4°C 57.5°F14.2°C 63% 4.6 mph W7.4 kmh W 11.7 mph18.8 kmh 29.03 in983.1 mb 0.00 in0.0 mm 0.00 in0.0 mm 0.00 in0.0 mm
09:13 AM 70.5°F21.4°C 57.5°F14.2°C 63% 6.1 mph W9.8 kmh W 11.7 mph18.8 kmh 29.03 in983.1 mb 0.00 in0.0 mm 0.00 in0.0 mm 0.00 in0.0 mm
09:12 AM 70.5°F21.4°C 57.0°F13.9°C 62% 8.1 mph WNW13.0 kmh WNW 11.7 mph18.8 kmh 29.03 in983.1 mb 0.00 in0.0 mm 0.00 in0.0 mm 0.00 in0.0 mm
09:11 AM 70.5°F21.4°C 57.5°F14.2°C 63% 8.9 mph WNW14.3 kmh WNW 11.7 mph18.8 kmh 29.03 in983.1 mb 0.00 in0.0 mm 0.00 in0.0 mm 0.00 in0.0 mm
09:10 AM 70.5°F21.4°C 57.5°F14.2°C 63% 8.2 mph W13.2 kmh W 11.7 mph18.8 kmh 29.03 in983.1 mb 0.00 in0.0 mm 0.00 in0.0 mm 0.00 in0.0 mm
09:09 AM 70.5°F21.4°C 57.5°F14.2°C 63% 7.2 mph WNW11.6 kmh WNW 11.0 mph17.7 kmh 29.03 in983.1 mb 0.00 in0.0 mm 0.00 in0.0 mm 0.00 in0.0 mm
09:08 AM 70.5°F21.4°C 58.5°F14.7°C 65% 6.4 mph WNW10.3 kmh WNW 9.1 mph14.6 kmh 29.03 in983.1 mb 0.00 in0.0 mm 0.00 in0.0 mm 0.00 in0.0 mm
09:07 AM 70.5°F21.4°C 58.5°F14.7°C 65% 6.2 mph WNW10.0 kmh WNW 9.1 mph14.6 kmh 29.03 in983.1 mb 0.00 in0.0 mm 0.00 in0.0 mm 0.00 in0.0 mm
09:06 AM 70.5°F21.4°C 58.5°F14.7°C 65% 6.2 mph WNW10.0 kmh WNW 9.1 mph14.6 kmh 29.03 in983.1 mb 0.00 in0.0 mm 0.00 in0.0 mm 0.00 in0.0 mm
09:05 AM 70.5°F21.4°C 58.5°F14.7°C 65% Calm Calm 9.1 mph14.6 kmh 29.03 in983.1 mb 0.00 in0.0 mm 0.00 in0.0 mm 0.00 in0.0 mm
09:04 AM 70.5°F21.4°C 58.5°F14.7°C 65% Calm Calm 9.1 mph14.6 kmh 29.03 in983.1 mb 0.00 in0.0 mm 0.00 in0.0 mm 0.00 in0.0 mm
09:03 AM 70.3°F21.3°C 58.3°F14.6°C 65% Calm Calm 9.1 mph14.6 kmh 29.03 in983.1 mb 0.00 in0.0 mm 0.00 in0.0 mm 0.00 in0.0 mm
09:02 AM 70.2°F21.2°C 58.2°F14.6°C 65% Calm Calm 9.1 mph14.6 kmh 29.03 in983.1 mb 0.00 in0.0 mm 0.00 in0.0 mm 0.00 in0.0 mm
09:01 AM 70.2°F21.2°C 58.2°F14.6°C 65% Calm Calm 9.1 mph14.6 kmh 29.03 in983.1 mb 0.00 in0.0 mm 0.00 in0.0 mm 0.00 in0.0 mm
09:00 AM 70.2°F21.2°C 58.2°F14.6°C 65% 4.3 mph WSW6.9 kmh WSW 9.7 mph15.6 kmh 29.03 in983.1 mb 0.00 in0.0 mm 0.00 in0.0 mm 0.00 in0.0 mm
08:59 AM 70.0°F21.1°C 58.0°F14.4°C 65% 5.5 mph WSW8.9 kmh WSW 9.7 mph15.6 kmh 29.03 in983.1 mb 0.00 in0.0 mm 0.00 in0.0 mm 0.00 in0.0 mm
08:58 AM 70.0°F21.1°C 58.0°F14.4°C 65% 6.2 mph WSW10.0 kmh WSW 9.7 mph15.6 kmh 29.03 in983.1 mb 0.00 in0.0 mm 0.00 in0.0 mm 0.00 in0.0 mm
08:57 AM 69.8°F21.0°C 57.8°F14.3°C 65% 5.5 mph W8.9 kmh W 9.7 mph15.6 kmh 29.03 in983.1 mb 0.00 in0.0 mm 0.00 in0.0 mm 0.00 in0.0 mm
08:56 AM 69.8°F21.0°C 57.8°F14.3°C 65% 5.3 mph W8.5 kmh W 9.7 mph15.6 kmh 29.03 in983.1 mb 0.00 in0.0 mm 0.00 in0.0 mm 0.00 in0.0 mm
08:55 AM 69.8°F21.0°C 57.8°F14.3°C 65% 5.7 mph WNW9.2 kmh WNW 9.7 mph15.6 kmh 29.03 in983.1 mb 0.00 in0.0 mm 0.00 in0.0 mm 0.00 in0.0 mm
08:54 AM 69.8°F21.0°C 57.8°F14.3°C 65% 5.7 mph WNW9.2 kmh WNW 9.7 mph15.6 kmh 29.03 in983.1 mb 0.00 in0.0 mm 0.00 in0.0 mm 0.00 in0.0 mm
08:53 AM 69.8°F21.0°C 57.8°F14.3°C 65% 6.2 mph WNW10.0 kmh WNW 9.7 mph15.6 kmh 29.03 in983.1 mb 0.00 in0.0 mm 0.00 in0.0 mm 0.00 in0.0 mm
08:52 AM 69.8°F21.0°C 58.3°F14.6°C 67% 6.2 mph WNW10.0 kmh WNW 9.7 mph15.6 kmh 29.03 in983.1 mb 0.00 in0.0 mm 0.00 in0.0 mm 0.00 in0.0 mm
08:51 AM 69.8°F21.0°C 58.3°F14.6°C 66% Calm Calm 9.7 mph15.6 kmh 29.03 in983.1 mb 0.00 in0.0 mm 0.00 in0.0 mm 0.00 in0.0 mm
08:50 AM 69.8°F21.0°C 58.3°F14.6°C 66% Calm Calm 7.8 mph12.6 kmh 29.03 in983.1 mb 0.00 in0.0 mm 0.00 in0.0 mm 0.00 in0.0 mm
08:49 AM 69.8°F21.0°C 58.3°F14.6°C 66% 4.3 mph WNW6.9 kmh WNW 7.8 mph12.6 kmh 29.03 in983.1 mb 0.00 in0.0 mm 0.00 in0.0 mm 0.00 in0.0 mm
08:48 AM 69.6°F20.9°C 58.6°F14.8°C 68% 4.3 mph WNW6.9 kmh WNW 7.8 mph12.6 kmh 29.03 in983.1 mb 0.00 in0.0 mm 0.00 in0.0 mm 0.00 in0.0 mm
08:47 AM 69.6°F20.9°C 58.6°F14.8°C 68% 3.8 mph WSW6.1 kmh WSW 7.8 mph12.6 kmh 29.03 in983.1 mb 0.00 in0.0 mm 0.00 in0.0 mm 0.00 in0.0 mm
08:46 AM 69.6°F20.9°C 58.6°F14.8°C 68% 4.0 mph WSW6.4 kmh WSW 7.8 mph12.6 kmh 29.03 in983.1 mb 0.00 in0.0 mm 0.00 in0.0 mm 0.00 in0.0 mm
08:45 AM 69.4°F20.8°C 58.4°F14.7°C 68% 4.2 mph W6.8 kmh W 7.8 mph12.6 kmh 29.03 in983.1 mb 0.00 in0.0 mm 0.00 in0.0 mm 0.00 in0.0 mm
08:44 AM 69.4°F20.8°C 58.4°F14.7°C 68% 4.8 mph WNW7.7 kmh WNW 7.8 mph12.6 kmh 29.03 in983.1 mb 0.00 in0.0 mm 0.00 in0.0 mm 0.00 in0.0 mm
08:43 AM 69.4°F20.8°C 58.4°F14.7°C 68% 5.5 mph WNW8.9 kmh WNW 7.8 mph12.6 kmh 29.03 in983.1 mb 0.00 in0.0 mm 0.00 in0.0 mm 0.00 in0.0 mm
08:42 AM 69.4°F20.8°C 58.4°F14.7°C 68% 4.0 mph WSW6.4 kmh WSW 7.8 mph12.6 kmh 29.03 in983.1 mb 0.00 in0.0 mm 0.00 in0.0 mm 0.00 in0.0 mm
08:41 AM 69.4°F20.8°C 58.4°F14.7°C 68% 4.5 mph WSW7.2 kmh WSW 7.1 mph11.4 kmh 29.03 in983.1 mb 0.00 in0.0 mm 0.00 in0.0 mm 0.00 in0.0 mm
08:40 AM 69.3°F20.7°C 58.8°F14.9°C 69% 4.8 mph WSW7.7 kmh WSW 7.1 mph11.4 kmh 29.03 in983.1 mb 0.00 in0.0 mm 0.00 in0.0 mm 0.00 in0.0 mm
08:39 AM 69.3°F20.7°C 58.3°F14.6°C 68% 4.3 mph WSW6.9 kmh WSW 7.1 mph11.4 kmh 29.03 in983.1 mb 0.00 in0.0 mm 0.00 in0.0 mm 0.00 in0.0 mm
08:38 AM 69.1°F20.6°C 58.1°F14.5°C 68% 4.1 mph WSW6.6 kmh WSW 7.1 mph11.4 kmh 29.03 in983.1 mb 0.00 in0.0 mm 0.00 in0.0 mm 0.00 in0.0 mm
08:37 AM 69.1°F20.6°C 58.1°F14.5°C 68% 3.5 mph WSW5.6 kmh WSW 7.1 mph11.4 kmh 29.03 in983.1 mb 0.00 in0.0 mm 0.00 in0.0 mm 0.00 in0.0 mm
08:36 AM 68.9°F20.5°C 57.9°F14.4°C 68% 3.5 mph WSW5.6 kmh WSW 8.4 mph13.5 kmh 29.03 in983.1 mb 0.00 in0.0 mm 0.00 in0.0 mm 0.00 in0.0 mm
08:35 AM 68.9°F20.5°C 57.9°F14.4°C 68% 4.3 mph WSW6.9 kmh WSW 9.1 mph14.6 kmh 29.03 in983.1 mb 0.00 in0.0 mm 0.00 in0.0 mm 0.00 in0.0 mm
08:34 AM 68.9°F20.5°C 57.9°F14.4°C 68% 4.3 mph WSW6.9 kmh WSW 9.1 mph14.6 kmh 29.03 in983.1 mb 0.00 in0.0 mm 0.00 in0.0 mm 0.00 in0.0 mm
08:33 AM 68.9°F20.5°C 57.9°F14.4°C 68% 3.5 mph WSW5.6 kmh WSW 9.1 mph14.6 kmh 29.03 in983.1 mb 0.00 in0.0 mm 0.00 in0.0 mm 0.00 in0.0 mm
08:32 AM 68.9°F20.5°C 57.9°F14.4°C 68% 3.5 mph W5.6 kmh W 9.1 mph14.6 kmh 29.03 in983.1 mb 0.00 in0.0 mm 0.00 in0.0 mm 0.00 in0.0 mm
08:31 AM 68.9°F20.5°C 58.4°F14.7°C 69% 4.2 mph W6.8 kmh W 9.1 mph14.6 kmh 29.03 in983.1 mb 0.00 in0.0 mm 0.00 in0.0 mm 0.00 in0.0 mm
08:30 AM 68.9°F20.5°C 58.4°F14.7°C 69% 4.3 mph W6.9 kmh W 9.1 mph14.6 kmh 29.03 in983.1 mb 0.00 in0.0 mm 0.00 in0.0 mm 0.00 in0.0 mm
08:29 AM 68.9°F20.5°C 58.4°F14.7°C 69% 4.6 mph W7.4 kmh W 9.1 mph14.6 kmh 29.03 in983.1 mb 0.00 in0.0 mm 0.00 in0.0 mm 0.00 in0.0 mm
08:28 AM 68.9°F20.5°C 58.4°F14.7°C 69% 5.3 mph W8.5 kmh W 9.1 mph14.6 kmh 29.03 in983.1 mb 0.00 in0.0 mm 0.00 in0.0 mm 0.00 in0.0 mm
08:27 AM 68.7°F20.4°C 58.2°F14.6°C 69% 6.0 mph WNW9.7 kmh WNW 9.1 mph14.6 kmh 29.03 in983.1 mb 0.00 in0.0 mm 0.00 in0.0 mm 0.00 in0.0 mm
08:26 AM 68.7°F20.4°C 58.6°F14.8°C 70% 5.6 mph W9.0 kmh W 9.1 mph14.6 kmh 29.03 in983.1 mb 0.00 in0.0 mm 0.00 in0.0 mm 0.00 in0.0 mm
08:25 AM 68.7°F20.4°C 58.6°F14.8°C 70% 4.6 mph W7.4 kmh W 9.1 mph14.6 kmh 29.03 in983.1 mb 0.00 in0.0 mm 0.00 in0.0 mm 0.00 in0.0 mm
08:24 AM 68.7°F20.4°C 58.6°F14.8°C 70% 4.1 mph WSW6.6 kmh WSW 9.1 mph14.6 kmh 29.03 in983.1 mb 0.00 in0.0 mm 0.00 in0.0 mm 0.00 in0.0 mm
08:22 AM 68.5°F20.3°C 58.4°F14.7°C 70% 5.0 mph WSW8.0 kmh WSW 9.1 mph14.6 kmh 29.03 in983.1 mb 0.00 in0.0 mm 0.00 in0.0 mm 0.00 in0.0 mm
08:21 AM 68.4°F20.2°C 58.3°F14.6°C 70% 5.2 mph WSW8.4 kmh WSW 9.1 mph14.6 kmh 29.03 in983.1 mb 0.00 in0.0 mm 0.00 in0.0 mm 0.00 in0.0 mm
08:20 AM 68.4°F20.2°C 58.3°F14.6°C 70% 4.7 mph WSW7.6 kmh WSW 9.1 mph14.6 kmh 29.03 in983.1 mb 0.00 in0.0 mm 0.00 in0.0 mm 0.00 in0.0 mm
08:19 AM 68.2°F20.1°C 58.1°F14.5°C 70% 4.7 mph WSW7.6 kmh WSW 9.1 mph14.6 kmh 29.03 in983.1 mb 0.00 in0.0 mm 0.00 in0.0 mm 0.00 in0.0 mm
08:18 AM 68.2°F20.1°C 58.1°F14.5°C 70% 4.9 mph WSW7.9 kmh WSW 9.1 mph14.6 kmh 29.03 in983.1 mb 0.00 in0.0 mm 0.00 in0.0 mm 0.00 in0.0 mm
08:17 AM 68.2°F20.1°C 58.1°F14.5°C 70% 4.7 mph WSW7.6 kmh WSW 9.1 mph14.6 kmh 29.03 in983.1 mb 0.00 in0.0 mm 0.00 in0.0 mm 0.00 in0.0 mm
08:16 AM 68.0°F20.0°C 58.0°F14.4°C 70% 5.2 mph W8.4 kmh W 7.8 mph12.6 kmh 29.03 in983.1 mb 0.00 in0.0 mm 0.00 in0.0 mm 0.00 in0.0 mm
08:15 AM 68.0°F20.0°C 57.9°F14.4°C 70% 4.7 mph W7.6 kmh W 7.8 mph12.6 kmh 29.03 in983.1 mb 0.00 in0.0 mm 0.00 in0.0 mm 0.00 in0.0 mm
08:14 AM 67.8°F19.9°C 58.2°F14.6°C 71% 4.0 mph WSW6.4 kmh WSW 7.8 mph12.6 kmh 29.03 in983.1 mb 0.00 in0.0 mm 0.00 in0.0 mm 0.00 in0.0 mm
08:13 AM 67.8°F19.9°C 58.2°F14.6°C 71% 3.8 mph WSW6.1 kmh WSW 7.8 mph12.6 kmh 29.03 in983.1 mb 0.00 in0.0 mm 0.00 in0.0 mm 0.00 in0.0 mm
08:12 AM 67.8°F19.9°C 58.2°F14.6°C 71% 4.1 mph W6.6 kmh W 7.8 mph12.6 kmh 29.03 in983.1 mb 0.00 in0.0 mm 0.00 in0.0 mm 0.00 in0.0 mm
08:11 AM 67.6°F19.8°C 58.0°F14.4°C 71% 4.6 mph W7.4 kmh W 7.8 mph12.6 kmh 29.03 in983.1 mb 0.00 in0.0 mm 0.00 in0.0 mm 0.00 in0.0 mm
08:10 AM 67.6°F19.8°C 58.0°F14.4°C 71% 4.4 mph W7.1 kmh W 7.1 mph11.4 kmh 29.03 in983.1 mb 0.00 in0.0 mm 0.00 in0.0 mm 0.00 in0.0 mm
08:09 AM 67.6°F19.8°C 58.0°F14.4°C 71% 4.3 mph WSW6.9 kmh WSW 7.1 mph11.4 kmh 29.03 in983.1 mb 0.00 in0.0 mm 0.00 in0.0 mm 0.00 in0.0 mm
08:08 AM 67.5°F19.7°C 57.9°F14.4°C 71% 4.6 mph WSW7.4 kmh WSW 7.1 mph11.4 kmh 29.03 in983.1 mb 0.00 in0.0 mm 0.00 in0.0 mm 0.00 in0.0 mm
08:07 AM 67.5°F19.7°C 57.9°F14.4°C 71% 4.2 mph W6.8 kmh W 7.1 mph11.4 kmh 29.03 in983.1 mb 0.00 in0.0 mm 0.00 in0.0 mm 0.00 in0.0 mm
08:06 AM 67.5°F19.7°C 57.9°F14.4°C 71% 3.7 mph W6.0 kmh W 7.1 mph11.4 kmh 29.03 in983.1 mb 0.00 in0.0 mm 0.00 in0.0 mm 0.00 in0.0 mm
08:05 AM 67.3°F19.6°C 57.7°F14.3°C 71% 3.7 mph W6.0 kmh W 4.5 mph7.2 kmh 29.03 in983.1 mb 0.00 in0.0 mm 0.00 in0.0 mm 0.00 in0.0 mm
08:04 AM 67.1°F19.5°C 57.5°F14.2°C 71% Calm Calm 5.2 mph8.4 kmh 29.03 in983.1 mb 0.00 in0.0 mm 0.00 in0.0 mm 0.00 in0.0 mm
08:03 AM 67.1°F19.5°C 57.5°F14.2°C 71% Calm Calm 5.2 mph8.4 kmh 29.03 in983.1 mb 0.00 in0.0 mm 0.00 in0.0 mm 0.00 in0.0 mm
08:02 AM 66.9°F19.4°C 57.3°F14.1°C 71% Calm Calm 5.2 mph8.4 kmh 29.03 in983.1 mb 0.00 in0.0 mm 0.00 in0.0 mm 0.00 in0.0 mm
08:01 AM 66.9°F19.4°C 57.3°F14.1°C 71% Calm Calm 5.2 mph8.4 kmh 29.03 in983.1 mb 0.00 in0.0 mm 0.00 in0.0 mm 0.00 in0.0 mm
08:00 AM 66.7°F19.3°C 57.1°F13.9°C 71% Calm Calm 5.2 mph8.4 kmh 29.03 in983.1 mb 0.00 in0.0 mm 0.00 in0.0 mm 0.00 in0.0 mm
07:59 AM 66.7°F19.3°C 57.1°F13.9°C 71% Calm Calm 5.2 mph8.4 kmh 29.03 in983.1 mb 0.00 in0.0 mm 0.00 in0.0 mm 0.00 in0.0 mm
07:58 AM 66.6°F19.2°C 57.0°F13.9°C 71% Calm Calm 5.2 mph8.4 kmh 29.03 in983.1 mb 0.00 in0.0 mm 0.00 in0.0 mm 0.00 in0.0 mm
07:57 AM 66.6°F19.2°C 57.0°F13.9°C 71% 3.0 mph W4.8 kmh W 7.8 mph12.6 kmh 29.03 in983.1 mb 0.00 in0.0 mm 0.00 in0.0 mm 0.00 in0.0 mm
07:56 AM 66.2°F19.0°C 57.1°F13.9°C 72% 3.3 mph W5.3 kmh W 7.8 mph12.6 kmh 29.03 in983.1 mb 0.00 in0.0 mm 0.00 in0.0 mm 0.00 in0.0 mm
07:55 AM 66.2°F19.0°C 57.1°F13.9°C 72% 3.7 mph W6.0 kmh W 7.8 mph12.6 kmh 29.03 in983.1 mb 0.00 in0.0 mm 0.00 in0.0 mm 0.00 in0.0 mm
07:54 AM 66.0°F18.9°C 56.9°F13.8°C 72% Calm Calm 7.8 mph12.6 kmh 29.03 in983.1 mb 0.00 in0.0 mm 0.00 in0.0 mm 0.00 in0.0 mm
07:53 AM 66.0°F18.9°C 56.9°F13.8°C 72% 3.0 mph WNW4.8 kmh WNW 7.8 mph12.6 kmh 29.03 in983.1 mb 0.00 in0.0 mm 0.00 in0.0 mm 0.00 in0.0 mm
07:52 AM 65.8°F18.8°C 56.7°F13.7°C 72% 3.0 mph WNW4.8 kmh WNW 7.8 mph12.6 kmh 29.03 in983.1 mb 0.00 in0.0 mm 0.00 in0.0 mm 0.00 in0.0 mm
07:51 AM 65.7°F18.7°C 56.6°F13.7°C 72% 4.3 mph WNW6.9 kmh WNW 9.1 mph14.6 kmh 29.03 in983.1 mb 0.00 in0.0 mm 0.00 in0.0 mm 0.00 in0.0 mm
07:50 AM 65.7°F18.7°C 56.6°F13.7°C 72% 4.1 mph WNW6.6 kmh WNW 9.1 mph14.6 kmh 29.03 in983.1 mb 0.00 in0.0 mm 0.00 in0.0 mm 0.00 in0.0 mm
07:49 AM 65.5°F18.6°C 56.4°F13.6°C 72% 3.8 mph WNW6.1 kmh WNW 9.1 mph14.6 kmh 29.03 in983.1 mb 0.00 in0.0 mm 0.00 in0.0 mm 0.00 in0.0 mm
07:48 AM 65.5°F18.6°C 56.4°F13.6°C 72% 3.3 mph WNW5.3 kmh WNW 9.1 mph14.6 kmh 29.00 in982.1 mb 0.00 in0.0 mm 0.00 in0.0 mm 0.00 in0.0 mm
07:47 AM 65.5°F18.6°C 56.4°F13.6°C 72% 3.7 mph WNW6.0 kmh WNW 9.1 mph14.6 kmh 29.00 in982.1 mb 0.00 in0.0 mm 0.00 in0.0 mm 0.00 in0.0 mm
07:46 AM 65.1°F18.4°C 56.0°F13.3°C 72% 3.9 mph WNW6.3 kmh WNW 9.1 mph14.6 kmh 29.00 in982.1 mb 0.00 in0.0 mm 0.00 in0.0 mm 0.00 in0.0 mm
07:45 AM 65.1°F18.4°C 56.0°F13.3°C 72% 3.8 mph WNW6.1 kmh WNW 9.1 mph14.6 kmh 29.00 in982.1 mb 0.00 in0.0 mm 0.00 in0.0 mm 0.00 in0.0 mm
07:44 AM 65.1°F18.4°C 56.0°F13.3°C 72% 4.4 mph WNW7.1 kmh WNW 9.1 mph14.6 kmh 29.00 in982.1 mb 0.00 in0.0 mm 0.00 in0.0 mm 0.00 in0.0 mm
07:43 AM 64.9°F18.3°C 55.8°F13.2°C 72% 4.9 mph WNW7.9 kmh WNW 9.1 mph14.6 kmh 29.00 in982.1 mb 0.00 in0.0 mm 0.00 in0.0 mm 0.00 in0.0 mm
07:42 AM 64.8°F18.2°C 55.7°F13.2°C 72% 4.9 mph WNW7.9 kmh WNW 9.1 mph14.6 kmh 29.00 in982.1 mb 0.00 in0.0 mm 0.00 in0.0 mm 0.00 in0.0 mm
07:41 AM 64.8°F18.2°C 55.7°F13.2°C 72% 4.6 mph W7.4 kmh W 9.1 mph14.6 kmh 29.00 in982.1 mb 0.00 in0.0 mm 0.00 in0.0 mm 0.00 in0.0 mm
07:40 AM 64.6°F18.1°C 55.1°F12.8°C 71% 4.3 mph W6.9 kmh W 8.4 mph13.5 kmh 29.00 in982.1 mb 0.00 in0.0 mm 0.00 in0.0 mm 0.00 in0.0 mm
07:39 AM 64.4°F18.0°C 54.9°F12.7°C 71% 4.3 mph W6.9 kmh W 8.4 mph13.5 kmh 29.00 in982.1 mb 0.00 in0.0 mm 0.00 in0.0 mm 0.00 in0.0 mm
07:38 AM 64.4°F18.0°C 54.9°F12.7°C 71% 4.1 mph W6.6 kmh W 8.4 mph13.5 kmh 29.00 in982.1 mb 0.00 in0.0 mm 0.00 in0.0 mm 0.00 in0.0 mm
07:37 AM 64.2°F17.9°C 54.7°F12.6°C 71% 3.9 mph WNW6.3 kmh WNW 8.4 mph13.5 kmh 29.00 in982.1 mb 0.00 in0.0 mm 0.00 in0.0 mm 0.00 in0.0 mm
07:36 AM 64.2°F17.9°C 54.7°F12.6°C 71% 5.0 mph WNW8.0 kmh WNW 8.4 mph13.5 kmh 29.00 in982.1 mb 0.00 in0.0 mm 0.00 in0.0 mm 0.00 in0.0 mm
07:35 AM 64.0°F17.8°C 54.5°F12.5°C 71% 5.7 mph WNW9.2 kmh WNW 8.4 mph13.5 kmh 29.00 in982.1 mb 0.00 in0.0 mm 0.00 in0.0 mm 0.00 in0.0 mm
07:34 AM 64.0°F17.8°C 54.5°F12.5°C 71% 4.6 mph W7.4 kmh W 11.0 mph17.7 kmh 29.00 in982.1 mb 0.00 in0.0 mm 0.00 in0.0 mm 0.00 in0.0 mm
07:33 AM 63.9°F17.7°C 54.4°F12.4°C 71% 4.4 mph W7.1 kmh W 11.0 mph17.7 kmh 29.03 in983.1 mb 0.00 in0.0 mm 0.00 in0.0 mm 0.00 in0.0 mm
07:32 AM 63.9°F17.7°C 54.4°F12.4°C 71% 5.4 mph WSW8.7 kmh WSW 11.0 mph17.7 kmh 29.03 in983.1 mb 0.00 in0.0 mm 0.00 in0.0 mm 0.00 in0.0 mm
07:31 AM 63.9°F17.7°C 54.4°F12.4°C 71% 5.6 mph WSW9.0 kmh WSW 11.0 mph17.7 kmh 29.03 in983.1 mb 0.00 in0.0 mm 0.00 in0.0 mm 0.00 in0.0 mm
07:30 AM 63.7°F17.6°C 54.2°F12.3°C 71% 4.8 mph WSW7.7 kmh WSW 11.0 mph17.7 kmh 29.03 in983.1 mb 0.00 in0.0 mm 0.00 in0.0 mm 0.00 in0.0 mm
07:29 AM 63.7°F17.6°C 54.2°F12.3°C 71% 3.5 mph WSW5.6 kmh WSW 11.0 mph17.7 kmh 29.03 in983.1 mb 0.00 in0.0 mm 0.00 in0.0 mm 0.00 in0.0 mm
07:28 AM 63.7°F17.6°C 54.2°F12.3°C 71% 3.4 mph WSW5.5 kmh WSW 11.0 mph17.7 kmh 29.03 in983.1 mb 0.00 in0.0 mm 0.00 in0.0 mm 0.00 in0.0 mm
07:27 AM 63.5°F17.5°C 54.0°F12.2°C 71% 4.9 mph W7.9 kmh W 11.0 mph17.7 kmh 29.03 in983.1 mb 0.00 in0.0 mm 0.00 in0.0 mm 0.00 in0.0 mm
07:26 AM 63.5°F17.5°C 54.0°F12.2°C 71% 5.6 mph W9.0 kmh W 11.0 mph17.7 kmh 29.03 in983.1 mb 0.00 in0.0 mm 0.00 in0.0 mm 0.00 in0.0 mm
07:25 AM 63.5°F17.5°C 54.0°F12.2°C 71% 5.2 mph W8.4 kmh W 11.0 mph17.7 kmh 29.03 in983.1 mb 0.00 in0.0 mm 0.00 in0.0 mm 0.00 in0.0 mm
07:24 AM 63.5°F17.5°C 54.0°F12.2°C 71% 4.3 mph W6.9 kmh W 11.0 mph17.7 kmh 29.03 in983.1 mb 0.00 in0.0 mm 0.00 in0.0 mm 0.00 in0.0 mm
07:23 AM 63.3°F17.4°C 53.8°F12.1°C 71% 4.0 mph W6.4 kmh W 7.8 mph12.6 kmh 29.03 in983.1 mb 0.00 in0.0 mm 0.00 in0.0 mm 0.00 in0.0 mm
07:22 AM 63.3°F17.4°C 53.8°F12.1°C 71% 3.7 mph W6.0 kmh W 7.8 mph12.6 kmh 29.03 in983.1 mb 0.00 in0.0 mm 0.00 in0.0 mm 0.00 in0.0 mm
07:21 AM 63.3°F17.4°C 53.8°F12.1°C 71% 4.1 mph W6.6 kmh W 7.8 mph12.6 kmh 29.03 in983.1 mb 0.00 in0.0 mm 0.00 in0.0 mm 0.00 in0.0 mm
07:20 AM 63.3°F17.4°C 53.3°F11.8°C 70% 3.8 mph W6.1 kmh W 7.8 mph12.6 kmh 29.03 in983.1 mb 0.00 in0.0 mm 0.00 in0.0 mm 0.00 in0.0 mm
07:19 AM 63.1°F17.3°C 53.1°F11.7°C 70% 3.2 mph W5.1 kmh W 7.8 mph12.6 kmh 29.03 in983.1 mb 0.00 in0.0 mm 0.00 in0.0 mm 0.00 in0.0 mm
07:18 AM 63.1°F17.3°C 53.1°F11.7°C 70% 3.5 mph W5.6 kmh W 7.8 mph12.6 kmh 29.03 in983.1 mb 0.00 in0.0 mm 0.00 in0.0 mm 0.00 in0.0 mm
07:17 AM 63.1°F17.3°C 53.1°F11.7°C 70% 3.3 mph WNW5.3 kmh WNW 7.8 mph12.6 kmh 29.03 in983.1 mb 0.00 in0.0 mm 0.00 in0.0 mm 0.00 in0.0 mm
07:16 AM 63.1°F17.3°C 53.1°F11.7°C 70% 3.1 mph WNW5.0 kmh WNW 9.1 mph14.6 kmh 29.03 in983.1 mb 0.00 in0.0 mm 0.00 in0.0 mm 0.00 in0.0 mm
07:15 AM 63.1°F17.3°C 53.1°F11.7°C 70% 3.0 mph WNW4.8 kmh WNW 9.1 mph14.6 kmh 29.03 in983.1 mb 0.00 in0.0 mm 0.00 in0.0 mm 0.00 in0.0 mm
07:14 AM 63.1°F17.3°C 53.1°F11.7°C 70% 3.0 mph W4.8 kmh W 9.1 mph14.6 kmh 29.03 in983.1 mb 0.00 in0.0 mm 0.00 in0.0 mm 0.00 in0.0 mm
07:13 AM 63.0°F17.2°C 53.0°F11.7°C 70% 3.4 mph WSW5.5 kmh WSW 9.1 mph14.6 kmh 29.03 in983.1 mb 0.00 in0.0 mm 0.00 in0.0 mm 0.00 in0.0 mm
07:12 AM 63.0°F17.2°C 53.0°F11.7°C 70% 3.4 mph W5.5 kmh W 9.1 mph14.6 kmh 29.03 in983.1 mb 0.00 in0.0 mm 0.00 in0.0 mm 0.00 in0.0 mm
07:11 AM 63.0°F17.2°C 53.0°F11.7°C 70% 3.2 mph W5.1 kmh W 11.0 mph17.7 kmh 29.03 in983.1 mb 0.00 in0.0 mm 0.00 in0.0 mm 0.00 in0.0 mm
07:10 AM 63.0°F17.2°C 53.0°F11.7°C 70% 4.8 mph W7.7 kmh W 11.0 mph17.7 kmh 29.03 in983.1 mb 0.00 in0.0 mm 0.00 in0.0 mm 0.00 in0.0 mm
07:09 AM 63.0°F17.2°C 53.0°F11.7°C 70% 4.9 mph W7.9 kmh W 11.0 mph17.7 kmh 29.03 in983.1 mb 0.00 in0.0 mm 0.00 in0.0 mm 0.00 in0.0 mm
07:08 AM 62.8°F17.1°C 52.8°F11.6°C 70% 4.7 mph W7.6 kmh W 11.0 mph17.7 kmh 29.03 in983.1 mb 0.00 in0.0 mm 0.00 in0.0 mm 0.00 in0.0 mm
07:07 AM 62.8°F17.1°C 52.4°F11.3°C 68% 4.0 mph W6.4 kmh W 11.0 mph17.7 kmh 29.03 in983.1 mb 0.00 in0.0 mm 0.00 in0.0 mm 0.00 in0.0 mm
07:06 AM 62.8°F17.1°C 52.4°F11.3°C 68% 3.4 mph WSW5.5 kmh WSW 11.0 mph17.7 kmh 29.03 in983.1 mb 0.00 in0.0 mm 0.00 in0.0 mm 0.00 in0.0 mm
07:05 AM 62.6°F17.0°C 52.2°F11.2°C 68% 4.1 mph W6.6 kmh W 11.0 mph17.7 kmh 29.03 in983.1 mb 0.00 in0.0 mm 0.00 in0.0 mm 0.00 in0.0 mm
07:04 AM 62.6°F17.0°C 52.2°F11.2°C 68% 5.6 mph W9.0 kmh W 11.0 mph17.7 kmh 29.03 in983.1 mb 0.00 in0.0 mm 0.00 in0.0 mm 0.00 in0.0 mm
07:03 AM 62.6°F17.0°C 52.2°F11.2°C 68% 4.8 mph W7.7 kmh W 11.0 mph17.7 kmh 29.03 in983.1 mb 0.00 in0.0 mm 0.00 in0.0 mm 0.00 in0.0 mm
07:02 AM 62.6°F17.0°C 52.2°F11.2°C 68% 3.7 mph WSW6.0 kmh WSW 11.0 mph17.7 kmh 29.03 in983.1 mb 0.00 in0.0 mm 0.00 in0.0 mm 0.00 in0.0 mm
07:01 AM 62.6°F17.0°C 52.2°F11.2°C 68% 3.9 mph WSW6.3 kmh WSW 9.1 mph14.6 kmh 29.03 in983.1 mb 0.00 in0.0 mm 0.00 in0.0 mm 0.00 in0.0 mm
07:00 AM 62.4°F16.9°C 52.0°F11.1°C 68% 4.3 mph WSW6.9 kmh WSW 9.1 mph14.6 kmh 29.03 in983.1 mb 0.00 in0.0 mm 0.00 in0.0 mm 0.00 in0.0 mm
06:59 AM 62.4°F16.9°C 52.0°F11.1°C 68% 4.8 mph WSW7.7 kmh WSW 9.1 mph14.6 kmh 29.03 in983.1 mb 0.00 in0.0 mm 0.00 in0.0 mm 0.00 in0.0 mm
06:58 AM 62.4°F16.9°C 52.0°F11.1°C 68% 5.4 mph WSW8.7 kmh WSW 9.1 mph14.6 kmh 29.03 in983.1 mb 0.00 in0.0 mm 0.00 in0.0 mm 0.00 in0.0 mm
06:57 AM 62.4°F16.9°C 52.0°F11.1°C 68% 5.2 mph WSW8.4 kmh WSW 9.1 mph14.6 kmh 29.03 in983.1 mb 0.00 in0.0 mm 0.00 in0.0 mm 0.00 in0.0 mm
06:56 AM 62.2°F16.8°C 51.8°F11.0°C 68% 4.7 mph W7.6 kmh W 9.1 mph14.6 kmh 29.03 in983.1 mb 0.00 in0.0 mm 0.00 in0.0 mm 0.00 in0.0 mm
06:54 AM 62.2°F16.8°C 51.8°F11.0°C 68% 4.3 mph WSW6.9 kmh WSW 8.4 mph13.5 kmh 29.03 in983.1 mb 0.00 in0.0 mm 0.00 in0.0 mm 0.00 in0.0 mm
06:53 AM 62.2°F16.8°C 51.8°F11.0°C 68% 3.8 mph WSW6.1 kmh WSW 8.4 mph13.5 kmh 29.03 in983.1 mb 0.00 in0.0 mm 0.00 in0.0 mm 0.00 in0.0 mm
06:52 AM 62.2°F16.8°C 51.8°F11.0°C 68% 3.9 mph WSW6.3 kmh WSW 7.8 mph12.6 kmh 29.03 in983.1 mb 0.00 in0.0 mm 0.00 in0.0 mm 0.00 in0.0 mm
06:51 AM 62.2°F16.8°C 51.8°F11.0°C 68% 4.4 mph WSW7.1 kmh WSW 8.4 mph13.5 kmh 29.03 in983.1 mb 0.00 in0.0 mm 0.00 in0.0 mm 0.00 in0.0 mm
06:50 AM 62.1°F16.7°C 51.7°F10.9°C 68% 4.5 mph WSW7.2 kmh WSW 9.1 mph14.6 kmh 29.03 in983.1 mb 0.00 in0.0 mm 0.00 in0.0 mm 0.00 in0.0 mm
06:49 AM 62.1°F16.7°C 51.7°F10.9°C 68% 4.1 mph W6.6 kmh W 9.1 mph14.6 kmh 29.03 in983.1 mb 0.00 in0.0 mm 0.00 in0.0 mm 0.00 in0.0 mm
06:48 AM 62.1°F16.7°C 51.7°F10.9°C 68% 4.9 mph W7.9 kmh W 9.1 mph14.6 kmh 29.03 in983.1 mb 0.00 in0.0 mm 0.00 in0.0 mm 0.00 in0.0 mm
06:47 AM 62.1°F16.7°C 51.7°F10.9°C 68% 5.2 mph W8.4 kmh W 9.1 mph14.6 kmh 29.03 in983.1 mb 0.00 in0.0 mm 0.00 in0.0 mm 0.00 in0.0 mm
06:46 AM 61.9°F16.6°C 51.5°F10.8°C 68% 4.6 mph W7.4 kmh W 9.1 mph14.6 kmh 29.03 in983.1 mb 0.00 in0.0 mm 0.00 in0.0 mm 0.00 in0.0 mm
06:45 AM 61.9°F16.6°C 51.5°F10.8°C 68% 4.7 mph W7.6 kmh W 9.1 mph14.6 kmh 29.03 in983.1 mb 0.00 in0.0 mm 0.00 in0.0 mm 0.00 in0.0 mm
06:44 AM 61.9°F16.6°C 51.0°F10.6°C 67% 5.5 mph WSW8.9 kmh WSW 9.1 mph14.6 kmh 29.03 in983.1 mb 0.00 in0.0 mm 0.00 in0.0 mm 0.00 in0.0 mm
06:43 AM 61.9°F16.6°C 51.0°F10.6°C 67% 5.8 mph WSW9.3 kmh WSW 9.1 mph14.6 kmh 29.03 in983.1 mb 0.00 in0.0 mm 0.00 in0.0 mm 0.00 in0.0 mm
06:42 AM 61.9°F16.6°C 51.0°F10.6°C 67% 5.3 mph WSW8.5 kmh WSW 9.1 mph14.6 kmh 29.03 in983.1 mb 0.00 in0.0 mm 0.00 in0.0 mm 0.00 in0.0 mm
06:41 AM 61.7°F16.5°C 50.8°F10.4°C 67% 4.5 mph WSW7.2 kmh WSW 9.1 mph14.6 kmh 29.03 in983.1 mb 0.00 in0.0 mm 0.00 in0.0 mm 0.00 in0.0 mm
06:40 AM 61.7°F16.5°C 50.8°F10.4°C 67% 4.3 mph W6.9 kmh W 8.4 mph13.5 kmh 29.03 in983.1 mb 0.00 in0.0 mm 0.00 in0.0 mm 0.00 in0.0 mm
06:39 AM 61.7°F16.5°C 50.8°F10.4°C 67% 4.3 mph W6.9 kmh W 8.4 mph13.5 kmh 29.03 in983.1 mb 0.00 in0.0 mm 0.00 in0.0 mm 0.00 in0.0 mm
06:38 AM 61.7°F16.5°C 50.8°F10.4°C 67% 3.7 mph WSW6.0 kmh WSW 8.4 mph13.5 kmh 29.03 in983.1 mb 0.00 in0.0 mm 0.00 in0.0 mm 0.00 in0.0 mm
06:37 AM 61.7°F16.5°C 50.8°F10.4°C 67% 3.6 mph WSW5.8 kmh WSW 7.1 mph11.4 kmh 29.03 in983.1 mb 0.00 in0.0 mm 0.00 in0.0 mm 0.00 in0.0 mm
06:36 AM 61.7°F16.5°C 50.8°F10.4°C 67% 3.0 mph W4.8 kmh W 5.8 mph9.3 kmh 29.03 in983.1 mb 0.00 in0.0 mm 0.00 in0.0 mm 0.00 in0.0 mm
06:35 AM 61.7°F16.5°C 50.8°F10.4°C 67% 3.0 mph W4.8 kmh W 5.8 mph9.3 kmh 29.03 in983.1 mb 0.00 in0.0 mm 0.00 in0.0 mm 0.00 in0.0 mm
06:34 AM 61.7°F16.5°C 50.8°F10.4°C 67% 3.3 mph W5.3 kmh W 7.1 mph11.4 kmh 29.03 in983.1 mb 0.00 in0.0 mm 0.00 in0.0 mm 0.00 in0.0 mm
06:33 AM 61.7°F16.5°C 50.8°F10.4°C 67% 3.4 mph W5.5 kmh W 7.1 mph11.4 kmh 29.03 in983.1 mb 0.00 in0.0 mm 0.00 in0.0 mm 0.00 in0.0 mm
06:32 AM 61.7°F16.5°C 50.8°F10.4°C 67% 3.7 mph W6.0 kmh W 7.1 mph11.4 kmh 29.03 in983.1 mb 0.00 in0.0 mm 0.00 in0.0 mm 0.00 in0.0 mm
06:31 AM 61.7°F16.5°C 50.8°F10.4°C 67% 3.9 mph WSW6.3 kmh WSW 7.1 mph11.4 kmh 29.03 in983.1 mb 0.00 in0.0 mm 0.00 in0.0 mm 0.00 in0.0 mm
06:30 AM 61.7°F16.5°C 50.8°F10.4°C 67% 3.5 mph WSW5.6 kmh WSW 7.1 mph11.4 kmh 29.03 in983.1 mb 0.00 in0.0 mm 0.00 in0.0 mm 0.00 in0.0 mm
06:29 AM 61.7°F16.5°C 50.8°F10.4°C 67% 3.4 mph WSW5.5 kmh WSW 7.1 mph11.4 kmh 29.03 in983.1 mb 0.00 in0.0 mm 0.00 in0.0 mm 0.00 in0.0 mm
06:28 AM 61.5°F16.4°C 50.1°F10.1°C 66% 3.3 mph WSW5.3 kmh WSW 7.1 mph11.4 kmh 29.03 in983.1 mb 0.00 in0.0 mm 0.00 in0.0 mm 0.00 in0.0 mm
06:27 AM 61.5°F16.4°C 50.1°F10.1°C 66% 3.4 mph WSW5.5 kmh WSW 7.1 mph11.4 kmh 29.03 in983.1 mb 0.00 in0.0 mm 0.00 in0.0 mm 0.00 in0.0 mm
06:26 AM 61.5°F16.4°C 50.1°F10.1°C 66% 4.3 mph WSW6.9 kmh WSW 7.1 mph11.4 kmh 29.03 in983.1 mb 0.00 in0.0 mm 0.00 in0.0 mm 0.00 in0.0 mm
06:25 AM 61.5°F16.4°C 50.1°F10.1°C 66% 4.6 mph WSW7.4 kmh WSW 7.1 mph11.4 kmh 29.03 in983.1 mb 0.00 in0.0 mm 0.00 in0.0 mm 0.00 in0.0 mm
06:24 AM 61.5°F16.4°C 50.1°F10.1°C 66% 4.3 mph WSW6.9 kmh WSW 7.1 mph11.4 kmh 29.03 in983.1 mb 0.00 in0.0 mm 0.00 in0.0 mm 0.00 in0.0 mm
06:23 AM 61.5°F16.4°C 50.1°F10.1°C 66% 4.1 mph WSW6.6 kmh WSW 5.8 mph9.3 kmh 29.03 in983.1 mb 0.00 in0.0 mm 0.00 in0.0 mm 0.00 in0.0 mm
06:22 AM 61.5°F16.4°C 50.1°F10.1°C 66% 3.5 mph WSW5.6 kmh WSW 5.8 mph9.3 kmh 29.03 in983.1 mb 0.00 in0.0 mm 0.00 in0.0 mm 0.00 in0.0 mm
06:21 AM 61.3°F16.3°C 49.9°F9.9°C 66% 3.4 mph WSW5.5 kmh WSW 6.5 mph10.5 kmh 29.03 in983.1 mb 0.00 in0.0 mm 0.00 in0.0 mm 0.00 in0.0 mm
06:20 AM 61.3°F16.3°C 49.9°F9.9°C 66% 3.9 mph WSW6.3 kmh WSW 6.5 mph10.5 kmh 29.03 in983.1 mb 0.00 in0.0 mm 0.00 in0.0 mm 0.00 in0.0 mm
06:19 AM 61.3°F16.3°C 49.9°F9.9°C 66% 4.3 mph WSW6.9 kmh WSW 6.5 mph10.5 kmh 29.03 in983.1 mb 0.00 in0.0 mm 0.00 in0.0 mm 0.00 in0.0 mm
06:18 AM 61.3°F16.3°C 49.9°F9.9°C 66% 4.4 mph WSW7.1 kmh WSW 6.5 mph10.5 kmh 29.00 in982.1 mb 0.00 in0.0 mm 0.00 in0.0 mm 0.00 in0.0 mm
06:17 AM 61.3°F16.3°C 49.9°F9.9°C 66% 4.3 mph WSW6.9 kmh WSW 7.1 mph11.4 kmh 29.00 in982.1 mb 0.00 in0.0 mm 0.00 in0.0 mm 0.00 in0.0 mm
06:16 AM 61.3°F16.3°C 49.9°F9.9°C 66% 4.5 mph WSW7.2 kmh WSW 7.1 mph11.4 kmh 29.00 in982.1 mb 0.00 in0.0 mm 0.00 in0.0 mm 0.00 in0.0 mm
06:15 AM 61.3°F16.3°C 49.9°F9.9°C 66% 4.3 mph WSW6.9 kmh WSW 7.8 mph12.6 kmh 29.00 in982.1 mb 0.00 in0.0 mm 0.00 in0.0 mm 0.00 in0.0 mm
06:14 AM 61.3°F16.3°C 49.9°F9.9°C 66% 3.9 mph W6.3 kmh W 7.8 mph12.6 kmh 29.00 in982.1 mb 0.00 in0.0 mm 0.00 in0.0 mm 0.00 in0.0 mm
06:13 AM 61.3°F16.3°C 50.0°F10.0°C 66% 3.8 mph W6.1 kmh W 7.8 mph12.6 kmh 29.00 in982.1 mb 0.00 in0.0 mm 0.00 in0.0 mm 0.00 in0.0 mm
06:12 AM 61.3°F16.3°C 50.0°F10.0°C 66% 4.5 mph W7.2 kmh W 7.8 mph12.6 kmh 29.00 in982.1 mb 0.00 in0.0 mm 0.00 in0.0 mm 0.00 in0.0 mm
06:11 AM 61.3°F16.3°C 50.0°F10.0°C 66% 4.8 mph WSW7.7 kmh WSW 7.8 mph12.6 kmh 29.00 in982.1 mb 0.00 in0.0 mm 0.00 in0.0 mm 0.00 in0.0 mm
06:10 AM 61.3°F16.3°C 50.0°F10.0°C 66% 4.9 mph WSW7.9 kmh WSW 7.8 mph12.6 kmh 29.00 in982.1 mb 0.00 in0.0 mm 0.00 in0.0 mm 0.00 in0.0 mm
06:09 AM 61.3°F16.3°C 50.0°F10.0°C 66% 4.9 mph WSW7.9 kmh WSW 7.8 mph12.6 kmh 29.00 in982.1 mb 0.00 in0.0 mm 0.00 in0.0 mm 0.00 in0.0 mm
06:08 AM 61.3°F16.3°C 50.0°F10.0°C 66% 4.6 mph WSW7.4 kmh WSW 7.8 mph12.6 kmh 29.00 in982.1 mb 0.00 in0.0 mm 0.00 in0.0 mm 0.00 in0.0 mm
06:07 AM 61.3°F16.3°C 50.0°F10.0°C 66% 4.1 mph WSW6.6 kmh WSW 7.8 mph12.6 kmh 29.00 in982.1 mb 0.00 in0.0 mm 0.00 in0.0 mm 0.00 in0.0 mm
06:06 AM 61.5°F16.4°C 49.7°F9.8°C 65% 3.7 mph WSW6.0 kmh WSW 7.8 mph12.6 kmh 29.00 in982.1 mb 0.00 in0.0 mm 0.00 in0.0 mm 0.00 in0.0 mm
06:05 AM 61.5°F16.4°C 49.7°F9.8°C 65% 4.0 mph WSW6.4 kmh WSW 7.8 mph12.6 kmh 29.00 in982.1 mb 0.00 in0.0 mm 0.00 in0.0 mm 0.00 in0.0 mm
06:04 AM 61.5°F16.4°C 49.7°F9.8°C 65% 4.3 mph WSW6.9 kmh WSW 7.8 mph12.6 kmh 29.00 in982.1 mb 0.00 in0.0 mm 0.00 in0.0 mm 0.00 in0.0 mm
06:03 AM 61.5°F16.4°C 49.7°F9.8°C 65% 4.3 mph WSW6.9 kmh WSW 7.8 mph12.6 kmh 29.00 in982.1 mb 0.00 in0.0 mm 0.00 in0.0 mm 0.00 in0.0 mm
06:02 AM 61.5°F16.4°C 49.7°F9.8°C 65% 4.1 mph W6.6 kmh W 7.8 mph12.6 kmh 29.00 in982.1 mb 0.00 in0.0 mm 0.00 in0.0 mm 0.00 in0.0 mm
06:01 AM 61.5°F16.4°C 49.7°F9.8°C 65% 4.0 mph W6.4 kmh W 7.8 mph12.6 kmh 29.00 in982.1 mb 0.00 in0.0 mm 0.00 in0.0 mm 0.00 in0.0 mm
06:00 AM 61.5°F16.4°C 49.7°F9.8°C 65% 4.0 mph W6.4 kmh W 7.8 mph12.6 kmh 29.00 in982.1 mb 0.00 in0.0 mm 0.00 in0.0 mm 0.00 in0.0 mm
05:57 AM 61.5°F16.4°C 49.7°F9.8°C 65% 4.3 mph WSW6.9 kmh WSW 7.8 mph12.6 kmh 29.00 in982.1 mb 0.00 in0.0 mm 0.00 in0.0 mm 0.00 in0.0 mm
05:56 AM 61.5°F16.4°C 49.7°F9.8°C 65% 3.7 mph W6.0 kmh W 7.8 mph12.6 kmh 29.00 in982.1 mb 0.00 in0.0 mm 0.00 in0.0 mm 0.00 in0.0 mm
05:55 AM 61.5°F16.4°C 49.7°F9.8°C 65% 3.9 mph W6.3 kmh W 7.8 mph12.6 kmh 29.00 in982.1 mb 0.00 in0.0 mm 0.00 in0.0 mm 0.00 in0.0 mm
05:54 AM 61.5°F16.4°C 49.7°F9.8°C 65% 4.2 mph W6.8 kmh W 7.8 mph12.6 kmh 29.00 in982.1 mb 0.00 in0.0 mm 0.00 in0.0 mm 0.00 in0.0 mm
05:53 AM 61.5°F16.4°C 49.7°F9.8°C 65% 4.3 mph W6.9 kmh W 7.8 mph12.6 kmh 29.00 in982.1 mb 0.00 in0.0 mm 0.00 in0.0 mm 0.00 in0.0 mm
05:52 AM 61.3°F16.3°C 49.5°F9.7°C 65% 3.9 mph W6.3 kmh W 7.8 mph12.6 kmh 29.00 in982.1 mb 0.00 in0.0 mm 0.00 in0.0 mm 0.00 in0.0 mm
05:51 AM 61.3°F16.3°C 49.5°F9.7°C 65% 3.6 mph WSW5.8 kmh WSW 7.8 mph12.6 kmh 29.00 in982.1 mb 0.00 in0.0 mm 0.00 in0.0 mm 0.00 in0.0 mm
05:50 AM 61.3°F16.3°C 49.0°F9.4°C 64% 3.5 mph WSW5.6 kmh WSW 7.8 mph12.6 kmh 29.00 in982.1 mb 0.00 in0.0 mm 0.00 in0.0 mm 0.00 in0.0 mm
05:49 AM 61.3°F16.3°C 49.0°F9.4°C 64% 3.1 mph WSW5.0 kmh WSW 7.8 mph12.6 kmh 29.00 in982.1 mb 0.00 in0.0 mm 0.00 in0.0 mm 0.00 in0.0 mm
05:48 AM 61.3°F16.3°C 49.0°F9.4°C 64% 3.3 mph WSW5.3 kmh WSW 7.8 mph12.6 kmh 29.00 in982.1 mb 0.00 in0.0 mm 0.00 in0.0 mm 0.00 in0.0 mm
05:47 AM 61.3°F16.3°C 49.0°F9.4°C 64% 3.8 mph WSW6.1 kmh WSW 7.8 mph12.6 kmh 29.00 in982.1 mb 0.00 in0.0 mm 0.00 in0.0 mm 0.00 in0.0 mm
05:46 AM 61.3°F16.3°C 49.0°F9.4°C 64% 4.0 mph WSW6.4 kmh WSW 7.8 mph12.6 kmh 29.00 in982.1 mb 0.00 in0.0 mm 0.00 in0.0 mm 0.00 in0.0 mm
05:45 AM 61.3°F16.3°C 49.0°F9.4°C 64% 4.0 mph WSW6.4 kmh WSW 5.8 mph9.3 kmh 29.00 in982.1 mb 0.00 in0.0 mm 0.00 in0.0 mm 0.00 in0.0 mm
05:44 AM 61.3°F16.3°C 49.0°F9.4°C 64% 3.7 mph WSW6.0 kmh WSW 7.1 mph11.4 kmh 29.00 in982.1 mb 0.00 in0.0 mm 0.00 in0.0 mm 0.00 in0.0 mm
05:43 AM 61.3°F16.3°C 49.0°F9.4°C 64% 3.1 mph WSW5.0 kmh WSW 7.1 mph11.4 kmh 29.00 in982.1 mb 0.00 in0.0 mm 0.00 in0.0 mm 0.00 in0.0 mm
05:42 AM 61.3°F16.3°C 49.0°F9.4°C 64% 3.4 mph W5.5 kmh W 7.1 mph11.4 kmh 29.00 in982.1 mb 0.00 in0.0 mm 0.00 in0.0 mm 0.00 in0.0 mm
05:41 AM 61.3°F16.3°C 49.0°F9.4°C 64% 3.4 mph W5.5 kmh W 7.1 mph11.4 kmh 29.00 in982.1 mb 0.00 in0.0 mm 0.00 in0.0 mm 0.00 in0.0 mm
05:40 AM 61.3°F16.3°C 49.0°F9.4°C 64% 3.6 mph WSW5.8 kmh WSW 7.1 mph11.4 kmh 29.00 in982.1 mb 0.00 in0.0 mm 0.00 in0.0 mm 0.00 in0.0 mm
05:39 AM 61.3°F16.3°C 49.1°F9.5°C 64% 4.0 mph WSW6.4 kmh WSW 7.1 mph11.4 kmh 29.00 in982.1 mb 0.00 in0.0 mm 0.00 in0.0 mm 0.00 in0.0 mm
05:38 AM 61.3°F16.3°C 49.1°F9.5°C 64% 4.0 mph WSW6.4 kmh WSW 7.1 mph11.4 kmh 29.00 in982.1 mb 0.00 in0.0 mm 0.00 in0.0 mm 0.00 in0.0 mm
05:37 AM 61.3°F16.3°C 49.1°F9.5°C 64% 4.0 mph WSW6.4 kmh WSW 7.1 mph11.4 kmh 29.00 in982.1 mb 0.00 in0.0 mm 0.00 in0.0 mm 0.00 in0.0 mm
05:36 AM 61.3°F16.3°C 49.1°F9.5°C 64% 3.6 mph W5.8 kmh W 7.1 mph11.4 kmh 29.00 in982.1 mb 0.00 in0.0 mm 0.00 in0.0 mm 0.00 in0.0 mm
05:35 AM 61.5°F16.4°C 49.3°F9.6°C 64% 3.8 mph WSW6.1 kmh WSW 7.1 mph11.4 kmh 29.00 in982.1 mb 0.00 in0.0 mm 0.00 in0.0 mm 0.00 in0.0 mm
05:34 AM 61.5°F16.4°C 49.3°F9.6°C 64% 4.3 mph WSW6.9 kmh WSW 5.8 mph9.3 kmh 29.00 in982.1 mb 0.00 in0.0 mm 0.00 in0.0 mm 0.00 in0.0 mm
05:33 AM 61.5°F16.4°C 49.3°F9.6°C 64% 3.0 mph W4.8 kmh W 5.8 mph9.3 kmh 29.00 in982.1 mb 0.00 in0.0 mm 0.00 in0.0 mm 0.00 in0.0 mm
05:32 AM 61.5°F16.4°C 49.3°F9.6°C 64% 3.3 mph W5.3 kmh W 5.8 mph9.3 kmh 29.00 in982.1 mb 0.00 in0.0 mm 0.00 in0.0 mm 0.00 in0.0 mm
05:31 AM 61.5°F16.4°C 49.3°F9.6°C 64% 4.2 mph W6.8 kmh W 5.8 mph9.3 kmh 29.00 in982.1 mb 0.00 in0.0 mm 0.00 in0.0 mm 0.00 in0.0 mm
05:30 AM 61.5°F16.4°C 48.8°F9.3°C 63% 4.3 mph WSW6.9 kmh WSW 5.8 mph9.3 kmh 29.00 in982.1 mb 0.00 in0.0 mm 0.00 in0.0 mm 0.00 in0.0 mm
05:29 AM 61.5°F16.4°C 48.8°F9.3°C 63% 4.1 mph WSW6.6 kmh WSW 5.8 mph9.3 kmh 29.00 in982.1 mb 0.00 in0.0 mm 0.00 in0.0 mm 0.00 in0.0 mm
05:28 AM 61.5°F16.4°C 48.8°F9.3°C 63% 3.7 mph WSW6.0 kmh WSW 5.8 mph9.3 kmh 29.00 in982.1 mb 0.00 in0.0 mm 0.00 in0.0 mm 0.00 in0.0 mm
05:27 AM 61.5°F16.4°C 48.8°F9.3°C 63% 4.3 mph WSW6.9 kmh WSW 5.8 mph9.3 kmh 29.00 in982.1 mb 0.00 in0.0 mm 0.00 in0.0 mm 0.00 in0.0 mm
05:26 AM 61.5°F16.4°C 48.8°F9.3°C 63% 4.0 mph WSW6.4 kmh WSW 5.8 mph9.3 kmh 29.00 in982.1 mb 0.00 in0.0 mm 0.00 in0.0 mm 0.00 in0.0 mm
05:25 AM 61.5°F16.4°C 48.8°F9.3°C 63% 3.8 mph WSW6.1 kmh WSW 5.8 mph9.3 kmh 29.00 in982.1 mb 0.00 in0.0 mm 0.00 in0.0 mm 0.00 in0.0 mm
05:24 AM 61.5°F16.4°C 48.8°F9.3°C 63% 4.0 mph WSW6.4 kmh WSW 5.8 mph9.3 kmh 29.00 in982.1 mb 0.00 in0.0 mm 0.00 in0.0 mm 0.00 in0.0 mm
05:23 AM 61.5°F16.4°C 48.8°F9.3°C 63% 4.3 mph WSW6.9 kmh WSW 7.1 mph11.4 kmh 29.00 in982.1 mb 0.00 in0.0 mm 0.00 in0.0 mm 0.00 in0.0 mm
05:22 AM 61.5°F16.4°C 48.8°F9.3°C 63% 3.7 mph WSW6.0 kmh WSW 7.1 mph11.4 kmh 29.00 in982.1 mb 0.00 in0.0 mm 0.00 in0.0 mm 0.00 in0.0 mm
05:21 AM 61.7°F16.5°C 49.0°F9.4°C 63% 3.4 mph WSW5.5 kmh WSW 7.1 mph11.4 kmh 29.00 in982.1 mb 0.00 in0.0 mm 0.00 in0.0 mm 0.00 in0.0 mm
05:20 AM 61.7°F16.5°C 49.0°F9.4°C 63% 3.4 mph WSW5.5 kmh WSW 7.8 mph12.6 kmh 29.00 in982.1 mb 0.00 in0.0 mm 0.00 in0.0 mm 0.00 in0.0 mm
05:19 AM 61.7°F16.5°C 49.0°F9.4°C 63% 3.1 mph WSW5.0 kmh WSW 7.8 mph12.6 kmh 29.00 in982.1 mb 0.00 in0.0 mm 0.00 in0.0 mm 0.00 in0.0 mm
05:18 AM 61.7°F16.5°C 49.0°F9.4°C 63% 3.2 mph WSW5.1 kmh WSW 7.8 mph12.6 kmh 29.00 in982.1 mb 0.00 in0.0 mm 0.00 in0.0 mm 0.00 in0.0 mm
05:17 AM 61.7°F16.5°C 49.0°F9.4°C 63% 3.6 mph WSW5.8 kmh WSW 7.8 mph12.6 kmh 29.00 in982.1 mb 0.00 in0.0 mm 0.00 in0.0 mm 0.00 in0.0 mm
05:16 AM 61.7°F16.5°C 49.0°F9.4°C 63% 4.0 mph WSW6.4 kmh WSW 7.8 mph12.6 kmh 29.00 in982.1 mb 0.00 in0.0 mm 0.00 in0.0 mm 0.00 in0.0 mm
05:15 AM 61.7°F16.5°C 49.0°F9.4°C 63% 4.5 mph WSW7.2 kmh WSW 7.8 mph12.6 kmh 29.00 in982.1 mb 0.00 in0.0 mm 0.00 in0.0 mm 0.00 in0.0 mm
05:14 AM 61.7°F16.5°C 49.0°F9.4°C 63% 4.9 mph WSW7.9 kmh WSW 7.8 mph12.6 kmh 29.00 in982.1 mb 0.00 in0.0 mm 0.00 in0.0 mm 0.00 in0.0 mm
05:13 AM 61.7°F16.5°C 49.0°F9.4°C 63% 4.9 mph WSW7.9 kmh WSW 7.8 mph12.6 kmh 29.00 in982.1 mb 0.00 in0.0 mm 0.00 in0.0 mm 0.00 in0.0 mm
05:12 AM 61.7°F16.5°C 49.0°F9.4°C 63% 4.4 mph SW7.1 kmh SW 7.8 mph12.6 kmh 29.00 in982.1 mb 0.00 in0.0 mm 0.00 in0.0 mm 0.00 in0.0 mm
05:11 AM 61.7°F16.5°C 49.0°F9.4°C 63% 4.1 mph WSW6.6 kmh WSW 7.8 mph12.6 kmh 29.00 in982.1 mb 0.00 in0.0 mm 0.00 in0.0 mm 0.00 in0.0 mm
05:10 AM 61.7°F16.5°C 49.0°F9.4°C 63% 4.0 mph WSW6.4 kmh WSW 7.8 mph12.6 kmh 29.00 in982.1 mb 0.00 in0.0 mm 0.00 in0.0 mm 0.00 in0.0 mm
05:09 AM 61.7°F16.5°C 49.0°F9.4°C 63% 4.2 mph WSW6.8 kmh WSW 5.8 mph9.3 kmh 29.00 in982.1 mb 0.00 in0.0 mm 0.00 in0.0 mm 0.00 in0.0 mm
05:08 AM 61.7°F16.5°C 49.0°F9.4°C 63% 3.9 mph WSW6.3 kmh WSW 5.8 mph9.3 kmh 29.00 in982.1 mb 0.00 in0.0 mm 0.00 in0.0 mm 0.00 in0.0 mm
05:07 AM 61.7°F16.5°C 48.5°F9.2°C 62% 3.6 mph WSW5.8 kmh WSW 5.8 mph9.3 kmh 29.00 in982.1 mb 0.00 in0.0 mm 0.00 in0.0 mm 0.00 in0.0 mm
05:06 AM 61.7°F16.5°C 48.5°F9.2°C 62% 3.3 mph WSW5.3 kmh WSW 5.8 mph9.3 kmh 29.00 in982.1 mb 0.00 in0.0 mm 0.00 in0.0 mm 0.00 in0.0 mm
05:05 AM 61.7°F16.5°C 48.5°F9.2°C 62% 3.9 mph WSW6.3 kmh WSW 5.8 mph9.3 kmh 29.00 in982.1 mb 0.00 in0.0 mm 0.00 in0.0 mm 0.00 in0.0 mm
05:04 AM 61.7°F16.5°C 48.5°F9.2°C 62% 3.5 mph WSW5.6 kmh WSW 5.8 mph9.3 kmh 29.00 in982.1 mb 0.00 in0.0 mm 0.00 in0.0 mm 0.00 in0.0 mm
05:03 AM 61.7°F16.5°C 48.5°F9.2°C 62% 3.2 mph WSW5.1 kmh WSW 5.8 mph9.3 kmh 29.00 in982.1 mb 0.00 in0.0 mm 0.00 in0.0 mm 0.00 in0.0 mm
05:02 AM 61.7°F16.5°C 48.5°F9.2°C 62% 3.0 mph WSW4.8 kmh WSW 5.8 mph9.3 kmh 28.97 in981.0 mb 0.00 in0.0 mm 0.00 in0.0 mm 0.00 in0.0 mm
05:01 AM 61.9°F16.6°C 48.7°F9.3°C 62% 3.3 mph WSW5.3 kmh WSW 5.8 mph9.3 kmh 28.97 in981.0 mb 0.00 in0.0 mm 0.00 in0.0 mm 0.00 in0.0 mm
05:00 AM 61.9°F16.6°C 48.7°F9.3°C 62% 3.6 mph WSW5.8 kmh WSW 5.8 mph9.3 kmh 28.97 in981.0 mb 0.00 in0.0 mm 0.00 in0.0 mm 0.00 in0.0 mm
04:59 AM 61.9°F16.6°C 48.7°F9.3°C 62% 3.7 mph WSW6.0 kmh WSW 7.1 mph11.4 kmh 28.97 in981.0 mb 0.00 in0.0 mm 0.00 in0.0 mm 0.00 in0.0 mm
04:58 AM 61.9°F16.6°C 48.7°F9.3°C 62% 3.5 mph SW5.6 kmh SW 8.4 mph13.5 kmh 28.97 in981.0 mb 0.00 in0.0 mm 0.00 in0.0 mm 0.00 in0.0 mm
04:57 AM 61.9°F16.6°C 48.7°F9.3°C 62% 3.7 mph WSW6.0 kmh WSW 8.4 mph13.5 kmh 28.97 in981.0 mb 0.00 in0.0 mm 0.00 in0.0 mm 0.00 in0.0 mm
04:56 AM 61.9°F16.6°C 48.7°F9.3°C 62% 4.0 mph WSW6.4 kmh WSW 8.4 mph13.5 kmh 28.97 in981.0 mb 0.00 in0.0 mm 0.00 in0.0 mm 0.00 in0.0 mm
04:55 AM 61.9°F16.6°C 48.7°F9.3°C 62% 4.1 mph WSW6.6 kmh WSW 8.4 mph13.5 kmh 28.97 in981.0 mb 0.00 in0.0 mm 0.00 in0.0 mm 0.00 in0.0 mm
04:54 AM 61.9°F16.6°C 48.7°F9.3°C 62% 3.8 mph SW6.1 kmh SW 8.4 mph13.5 kmh 28.97 in981.0 mb 0.00 in0.0 mm 0.00 in0.0 mm 0.00 in0.0 mm
04:53 AM 61.9°F16.6°C 48.7°F9.3°C 62% 3.4 mph WSW5.5 kmh WSW 8.4 mph13.5 kmh 28.97 in981.0 mb 0.00 in0.0 mm 0.00 in0.0 mm 0.00 in0.0 mm
04:52 AM 61.9°F16.6°C 48.7°F9.3°C 62% 3.7 mph SW6.0 kmh SW 8.4 mph13.5 kmh 28.97 in981.0 mb 0.00 in0.0 mm 0.00 in0.0 mm 0.00 in0.0 mm
04:51 AM 61.9°F16.6°C 48.7°F9.3°C 62% 4.5 mph SW7.2 kmh SW 8.4 mph13.5 kmh 28.97 in981.0 mb 0.00 in0.0 mm 0.00 in0.0 mm 0.00 in0.0 mm
04:50 AM 61.9°F16.6°C 48.7°F9.3°C 62% 4.6 mph WSW7.4 kmh WSW 8.4 mph13.5 kmh 28.97 in981.0 mb 0.00 in0.0 mm 0.00 in0.0 mm 0.00 in0.0 mm
04:49 AM 61.9°F16.6°C 48.7°F9.3°C 62% 4.7 mph W7.6 kmh W 8.4 mph13.5 kmh 28.97 in981.0 mb 0.00 in0.0 mm 0.00 in0.0 mm 0.00 in0.0 mm
04:48 AM 61.9°F16.6°C 48.7°F9.3°C 62% 4.4 mph W7.1 kmh W 8.4 mph13.5 kmh 29.00 in982.1 mb 0.00 in0.0 mm 0.00 in0.0 mm 0.00 in0.0 mm
04:47 AM 61.9°F16.6°C 48.2°F9.0°C 61% 3.8 mph WSW6.1 kmh WSW 7.1 mph11.4 kmh 29.00 in982.1 mb 0.00 in0.0 mm 0.00 in0.0 mm 0.00 in0.0 mm
04:46 AM 61.9°F16.6°C 48.2°F9.0°C 61% 4.3 mph WSW6.9 kmh WSW 7.1 mph11.4 kmh 29.00 in982.1 mb 0.00 in0.0 mm 0.00 in0.0 mm 0.00 in0.0 mm
04:45 AM 61.9°F16.6°C 48.2°F9.0°C 61% 4.6 mph WSW7.4 kmh WSW 7.1 mph11.4 kmh 29.00 in982.1 mb 0.00 in0.0 mm 0.00 in0.0 mm 0.00 in0.0 mm
04:44 AM 61.9°F16.6°C 48.2°F9.0°C 61% 4.5 mph WSW7.2 kmh WSW 7.1 mph11.4 kmh 29.00 in982.1 mb 0.00 in0.0 mm 0.00 in0.0 mm 0.00 in0.0 mm
04:43 AM 61.9°F16.6°C 48.2°F9.0°C 61% 4.2 mph WSW6.8 kmh WSW 7.1 mph11.4 kmh 29.00 in982.1 mb 0.00 in0.0 mm 0.00 in0.0 mm 0.00 in0.0 mm
04:42 AM 61.9°F16.6°C 48.2°F9.0°C 61% 3.8 mph WSW6.1 kmh WSW 7.1 mph11.4 kmh 29.00 in982.1 mb 0.00 in0.0 mm 0.00 in0.0 mm 0.00 in0.0 mm
04:41 AM 61.9°F16.6°C 48.2°F9.0°C 61% 4.2 mph W6.8 kmh W 7.1 mph11.4 kmh 29.00 in982.1 mb 0.00 in0.0 mm 0.00 in0.0 mm 0.00 in0.0 mm
04:40 AM 62.1°F16.7°C 48.4°F9.1°C 61% 4.5 mph W7.2 kmh W 7.1 mph11.4 kmh 29.00 in982.1 mb 0.00 in0.0 mm 0.00 in0.0 mm 0.00 in0.0 mm
04:39 AM 62.1°F16.7°C 48.4°F9.1°C 61% 4.4 mph W7.1 kmh W 7.1 mph11.4 kmh 29.00 in982.1 mb 0.00 in0.0 mm 0.00 in0.0 mm 0.00 in0.0 mm
04:38 AM 62.1°F16.7°C 48.4°F9.1°C 61% 4.1 mph WSW6.6 kmh WSW 6.5 mph10.5 kmh 29.00 in982.1 mb 0.00 in0.0 mm 0.00 in0.0 mm 0.00 in0.0 mm
04:37 AM 62.1°F16.7°C 48.4°F9.1°C 61% 4.1 mph WSW6.6 kmh WSW 6.5 mph10.5 kmh 29.00 in982.1 mb 0.00 in0.0 mm 0.00 in0.0 mm 0.00 in0.0 mm
04:36 AM 62.1°F16.7°C 48.4°F9.1°C 61% 4.6 mph WSW7.4 kmh WSW 7.1 mph11.4 kmh 29.00 in982.1 mb 0.00 in0.0 mm 0.00 in0.0 mm 0.00 in0.0 mm
04:35 AM 62.1°F16.7°C 48.4°F9.1°C 61% 4.4 mph WSW7.1 kmh WSW 7.1 mph11.4 kmh 29.00 in982.1 mb 0.00 in0.0 mm 0.00 in0.0 mm 0.00 in0.0 mm
04:34 AM 62.1°F16.7°C 48.4°F9.1°C 61% 4.3 mph WSW6.9 kmh WSW 7.1 mph11.4 kmh 29.00 in982.1 mb 0.00 in0.0 mm 0.00 in0.0 mm 0.00 in0.0 mm
04:33 AM 62.1°F16.7°C 48.4°F9.1°C 61% 4.6 mph WSW7.4 kmh WSW 7.1 mph11.4 kmh 29.00 in982.1 mb 0.00 in0.0 mm 0.00 in0.0 mm 0.00 in0.0 mm
04:32 AM 62.2°F16.8°C 48.5°F9.2°C 61% 4.0 mph WSW6.4 kmh WSW 7.1 mph11.4 kmh 29.00 in982.1 mb 0.00 in0.0 mm 0.00 in0.0 mm 0.00 in0.0 mm
04:31 AM 62.2°F16.8°C 48.5°F9.2°C 61% 3.4 mph WSW5.5 kmh WSW 7.1 mph11.4 kmh 29.00 in982.1 mb 0.00 in0.0 mm 0.00 in0.0 mm 0.00 in0.0 mm
04:30 AM 62.2°F16.8°C 48.5°F9.2°C 61% 3.7 mph WSW6.0 kmh WSW 7.1 mph11.4 kmh 29.00 in982.1 mb 0.00 in0.0 mm 0.00 in0.0 mm 0.00 in0.0 mm
04:29 AM 62.2°F16.8°C 48.5°F9.2°C 61% 4.3 mph WSW6.9 kmh WSW 7.1 mph11.4 kmh 29.00 in982.1 mb 0.00 in0.0 mm 0.00 in0.0 mm 0.00 in0.0 mm
04:28 AM 62.4°F16.9°C 48.7°F9.3°C 61% 4.3 mph WSW6.9 kmh WSW 7.1 mph11.4 kmh 29.00 in982.1 mb 0.00 in0.0 mm 0.00 in0.0 mm 0.00 in0.0 mm
04:27 AM 62.4°F16.9°C 48.7°F9.3°C 61% 4.1 mph WSW6.6 kmh WSW 7.1 mph11.4 kmh 29.00 in982.1 mb 0.00 in0.0 mm 0.00 in0.0 mm 0.00 in0.0 mm
04:26 AM 62.4°F16.9°C 48.7°F9.3°C 61% 3.6 mph WSW5.8 kmh WSW 7.8 mph12.6 kmh 29.00 in982.1 mb 0.00 in0.0 mm 0.00 in0.0 mm 0.00 in0.0 mm
04:25 AM 62.4°F16.9°C 48.7°F9.3°C 61% 3.4 mph WSW5.5 kmh WSW 7.8 mph12.6 kmh 29.00 in982.1 mb 0.00 in0.0 mm 0.00 in0.0 mm 0.00 in0.0 mm
04:24 AM 62.4°F16.9°C 48.7°F9.3°C 61% 3.9 mph WSW6.3 kmh WSW 7.8 mph12.6 kmh 29.00 in982.1 mb 0.00 in0.0 mm 0.00 in0.0 mm 0.00 in0.0 mm
04:23 AM 62.6°F17.0°C 48.4°F9.1°C 59% 4.3 mph WSW6.9 kmh WSW 7.8 mph12.6 kmh 29.00 in982.1 mb 0.00 in0.0 mm 0.00 in0.0 mm 0.00 in0.0 mm
04:22 AM 62.6°F17.0°C 48.4°F9.1°C 59% 4.4 mph WSW7.1 kmh WSW 7.8 mph12.6 kmh 29.00 in982.1 mb 0.00 in0.0 mm 0.00 in0.0 mm 0.00 in0.0 mm
04:21 AM 62.6°F17.0°C 48.4°F9.1°C 59% 4.5 mph WSW7.2 kmh WSW 7.8 mph12.6 kmh 29.00 in982.1 mb 0.00 in0.0 mm 0.00 in0.0 mm 0.00 in0.0 mm
04:20 AM 62.6°F17.0°C 48.4°F9.1°C 59% 4.9 mph WSW7.9 kmh WSW 7.8 mph12.6 kmh 29.00 in982.1 mb 0.00 in0.0 mm 0.00 in0.0 mm 0.00 in0.0 mm
04:19 AM 62.6°F17.0°C 48.4°F9.1°C 59% 4.6 mph WSW7.4 kmh WSW 7.8 mph12.6 kmh 29.00 in982.1 mb 0.00 in0.0 mm 0.00 in0.0 mm 0.00 in0.0 mm
04:18 AM 62.6°F17.0°C 48.4°F9.1°C 59% 4.6 mph WSW7.4 kmh WSW 7.8 mph12.6 kmh 29.00 in982.1 mb 0.00 in0.0 mm 0.00 in0.0 mm 0.00 in0.0 mm
04:17 AM 62.6°F17.0°C 48.4°F9.1°C 59% 4.5 mph WSW7.2 kmh WSW 7.8 mph12.6 kmh 29.00 in982.1 mb 0.00 in0.0 mm 0.00 in0.0 mm 0.00 in0.0 mm
04:16 AM 62.8°F17.1°C 48.6°F9.2°C 59% 3.5 mph WSW5.6 kmh WSW 7.1 mph11.4 kmh 29.00 in982.1 mb 0.00 in0.0 mm 0.00 in0.0 mm 0.00 in0.0 mm
04:15 AM 62.8°F17.1°C 48.6°F9.2°C 59% 3.1 mph WSW5.0 kmh WSW 7.1 mph11.4 kmh 29.00 in982.1 mb 0.00 in0.0 mm 0.00 in0.0 mm 0.00 in0.0 mm
04:14 AM 62.8°F17.1°C 48.6°F9.2°C 59% 5.3 mph WSW8.5 kmh WSW 7.1 mph11.4 kmh 29.00 in982.1 mb 0.00 in0.0 mm 0.00 in0.0 mm 0.00 in0.0 mm
04:13 AM 62.8°F17.1°C 48.6°F9.2°C 59% 4.8 mph WSW7.7 kmh WSW 7.8 mph12.6 kmh 29.00 in982.1 mb 0.00 in0.0 mm 0.00 in0.0 mm 0.00 in0.0 mm
04:12 AM 62.8°F17.1°C 48.6°F9.2°C 60% 3.7 mph WSW6.0 kmh WSW 7.8 mph12.6 kmh 29.00 in982.1 mb 0.00 in0.0 mm 0.00 in0.0 mm 0.00 in0.0 mm
04:11 AM 62.8°F17.1°C 48.6°F9.2°C 60% 3.6 mph WSW5.8 kmh WSW 7.8 mph12.6 kmh 29.00 in982.1 mb 0.00 in0.0 mm 0.00 in0.0 mm 0.00 in0.0 mm
04:10 AM 62.8°F17.1°C 48.6°F9.2°C 60% 4.0 mph WSW6.4 kmh WSW 7.8 mph12.6 kmh 29.00 in982.1 mb 0.00 in0.0 mm 0.00 in0.0 mm 0.00 in0.0 mm
04:09 AM 62.8°F17.1°C 48.6°F9.2°C 60% 3.8 mph WSW6.1 kmh WSW 7.8 mph12.6 kmh 29.00 in982.1 mb 0.00 in0.0 mm 0.00 in0.0 mm 0.00 in0.0 mm
04:08 AM 62.8°F17.1°C 48.6°F9.2°C 60% 3.0 mph WSW4.8 kmh WSW 7.8 mph12.6 kmh 29.00 in982.1 mb 0.00 in0.0 mm 0.00 in0.0 mm 0.00 in0.0 mm
04:07 AM 62.8°F17.1°C 48.6°F9.2°C 60% 3.0 mph WSW4.8 kmh WSW 7.8 mph12.6 kmh 29.00 in982.1 mb 0.00 in0.0 mm 0.00 in0.0 mm 0.00 in0.0 mm
04:06 AM 62.8°F17.1°C 48.6°F9.2°C 60% 3.7 mph WSW6.0 kmh WSW 7.8 mph12.6 kmh 29.00 in982.1 mb 0.00 in0.0 mm 0.00 in0.0 mm 0.00 in0.0 mm
04:05 AM 62.8°F17.1°C 48.6°F9.2°C 60% 4.0 mph WSW6.4 kmh WSW 7.8 mph12.6 kmh 29.00 in982.1 mb 0.00 in0.0 mm 0.00 in0.0 mm 0.00 in0.0 mm
04:04 AM 62.8°F17.1°C 48.1°F8.9°C 58% 4.3 mph WSW6.9 kmh WSW 7.8 mph12.6 kmh 29.00 in982.1 mb 0.00 in0.0 mm 0.00 in0.0 mm 0.00 in0.0 mm
04:03 AM 63.0°F17.2°C 48.3°F9.1°C 58% 4.3 mph SW6.9 kmh SW 7.8 mph12.6 kmh 29.00 in982.1 mb 0.00 in0.0 mm 0.00 in0.0 mm 0.00 in0.0 mm
04:02 AM 63.0°F17.2°C 48.3°F9.1°C 58% 4.0 mph SW6.4 kmh SW 7.8 mph12.6 kmh 29.00 in982.1 mb 0.00 in0.0 mm 0.00 in0.0 mm 0.00 in0.0 mm
04:01 AM 63.0°F17.2°C 48.3°F9.1°C 58% 3.4 mph WSW5.5 kmh WSW 7.8 mph12.6 kmh 29.00 in982.1 mb 0.00 in0.0 mm 0.00 in0.0 mm 0.00 in0.0 mm
04:00 AM 63.0°F17.2°C 48.3°F9.1°C 58% 3.4 mph WSW5.5 kmh WSW 7.8 mph12.6 kmh 29.00 in982.1 mb 0.00 in0.0 mm 0.00 in0.0 mm 0.00 in0.0 mm
03:59 AM 63.0°F17.2°C 48.3°F9.1°C 58% 4.0 mph WSW6.4 kmh WSW 7.8 mph12.6 kmh 29.00 in982.1 mb 0.00 in0.0 mm 0.00 in0.0 mm 0.00 in0.0 mm
03:58 AM 63.1°F17.3°C 48.4°F9.1°C 58% 4.3 mph WSW6.9 kmh WSW 9.1 mph14.6 kmh 29.00 in982.1 mb 0.00 in0.0 mm 0.00 in0.0 mm 0.00 in0.0 mm
03:57 AM 63.1°F17.3°C 48.4°F9.1°C 58% 4.6 mph WSW7.4 kmh WSW 9.1 mph14.6 kmh 29.00 in982.1 mb 0.00 in0.0 mm 0.00 in0.0 mm 0.00 in0.0 mm
03:56 AM 63.1°F17.3°C 48.4°F9.1°C 58% 4.0 mph WSW6.4 kmh WSW 9.1 mph14.6 kmh 29.00 in982.1 mb 0.00 in0.0 mm 0.00 in0.0 mm 0.00 in0.0 mm
03:55 AM 63.1°F17.3°C 48.4°F9.1°C 58% 3.3 mph WSW5.3 kmh WSW 9.1 mph14.6 kmh 29.00 in982.1 mb 0.00 in0.0 mm 0.00 in0.0 mm 0.00 in0.0 mm
03:53 AM 63.1°F17.3°C 48.4°F9.1°C 58% 3.4 mph WSW5.5 kmh WSW 9.1 mph14.6 kmh 29.00 in982.1 mb 0.00 in0.0 mm 0.00 in0.0 mm 0.00 in0.0 mm
03:52 AM 63.3°F17.4°C 48.6°F9.2°C 58% 4.3 mph WSW6.9 kmh WSW 9.1 mph14.6 kmh 29.00 in982.1 mb 0.00 in0.0 mm 0.00 in0.0 mm 0.00 in0.0 mm
03:51 AM 63.3°F17.4°C 48.6°F9.2°C 58% 4.9 mph WSW7.9 kmh WSW 9.1 mph14.6 kmh 29.00 in982.1 mb 0.00 in0.0 mm 0.00 in0.0 mm 0.00 in0.0 mm
03:50 AM 63.3°F17.4°C 48.6°F9.2°C 58% 4.4 mph WSW7.1 kmh WSW 9.1 mph14.6 kmh 29.00 in982.1 mb 0.00 in0.0 mm 0.00 in0.0 mm 0.00 in0.0 mm
03:49 AM 63.3°F17.4°C 48.6°F9.2°C 58% 4.0 mph WSW6.4 kmh WSW 9.1 mph14.6 kmh 29.00 in982.1 mb 0.00 in0.0 mm 0.00 in0.0 mm 0.00 in0.0 mm
03:48 AM 63.5°F17.5°C 48.8°F9.3°C 58% 4.4 mph WSW7.1 kmh WSW 9.1 mph14.6 kmh 29.00 in982.1 mb 0.00 in0.0 mm 0.00 in0.0 mm 0.00 in0.0 mm
03:47 AM 63.5°F17.5°C 48.8°F9.3°C 58% 4.6 mph WSW7.4 kmh WSW 9.1 mph14.6 kmh 29.00 in982.1 mb 0.00 in0.0 mm 0.00 in0.0 mm 0.00 in0.0 mm
03:46 AM 63.5°F17.5°C 48.8°F9.3°C 58% 4.2 mph SW6.8 kmh SW 9.1 mph14.6 kmh 29.00 in982.1 mb 0.00 in0.0 mm 0.00 in0.0 mm 0.00 in0.0 mm
03:45 AM 63.5°F17.5°C 48.8°F9.3°C 58% 3.5 mph SW5.6 kmh SW 9.1 mph14.6 kmh 29.00 in982.1 mb 0.00 in0.0 mm 0.00 in0.0 mm 0.00 in0.0 mm
03:44 AM 63.5°F17.5°C 48.8°F9.3°C 58% 3.4 mph SW5.5 kmh SW 9.1 mph14.6 kmh 29.00 in982.1 mb 0.00 in0.0 mm 0.00 in0.0 mm 0.00 in0.0 mm
03:43 AM 63.5°F17.5°C 48.8°F9.3°C 58% 3.3 mph SW5.3 kmh SW 9.1 mph14.6 kmh 29.00 in982.1 mb 0.00 in0.0 mm 0.00 in0.0 mm 0.00 in0.0 mm
03:41 AM 63.5°F17.5°C 48.8°F9.3°C 58% 3.3 mph SW5.3 kmh SW 9.1 mph14.6 kmh 29.00 in982.1 mb 0.00 in0.0 mm 0.00 in0.0 mm 0.00 in0.0 mm
03:40 AM 63.5°F17.5°C 48.8°F9.3°C 58% 3.4 mph SW5.5 kmh SW 5.8 mph9.3 kmh 29.00 in982.1 mb 0.00 in0.0 mm 0.00 in0.0 mm 0.00 in0.0 mm
03:39 AM 63.5°F17.5°C 48.8°F9.3°C 58% 3.6 mph SW5.8 kmh SW 5.8 mph9.3 kmh 29.00 in982.1 mb 0.00 in0.0 mm 0.00 in0.0 mm 0.00 in0.0 mm
03:38 AM 63.5°F17.5°C 48.8°F9.3°C 58% 3.5 mph SW5.6 kmh SW 5.8 mph9.3 kmh 29.00 in982.1 mb 0.00 in0.0 mm 0.00 in0.0 mm 0.00 in0.0 mm
03:37 AM 63.5°F17.5°C 48.8°F9.3°C 58% 3.4 mph SW5.5 kmh SW 5.8 mph9.3 kmh 29.00 in982.1 mb 0.00 in0.0 mm 0.00 in0.0 mm 0.00 in0.0 mm
03:36 AM 63.5°F17.5°C 48.8°F9.3°C 58% 3.7 mph SW6.0 kmh SW 5.8 mph9.3 kmh 29.00 in982.1 mb 0.00 in0.0 mm 0.00 in0.0 mm 0.00 in0.0 mm
03:35 AM 63.5°F17.5°C 48.8°F9.3°C 58% 3.7 mph SW6.0 kmh SW 7.1 mph11.4 kmh 29.00 in982.1 mb 0.00 in0.0 mm 0.00 in0.0 mm 0.00 in0.0 mm
03:34 AM 63.5°F17.5°C 48.8°F9.3°C 58% 3.7 mph SW6.0 kmh SW 7.1 mph11.4 kmh 29.00 in982.1 mb 0.00 in0.0 mm 0.00 in0.0 mm 0.00 in0.0 mm
03:33 AM 63.5°F17.5°C 48.8°F9.3°C 58% 3.7 mph SW6.0 kmh SW 7.1 mph11.4 kmh 29.00 in982.1 mb 0.00 in0.0 mm 0.00 in0.0 mm 0.00 in0.0 mm
03:32 AM 63.5°F17.5°C 48.8°F9.3°C 58% 3.7 mph SW6.0 kmh SW 7.1 mph11.4 kmh 29.00 in982.1 mb 0.00 in0.0 mm 0.00 in0.0 mm 0.00 in0.0 mm
03:31 AM 63.5°F17.5°C 48.8°F9.3°C 59% 3.7 mph SW6.0 kmh SW 7.1 mph11.4 kmh 29.00 in982.1 mb 0.00 in0.0 mm 0.00 in0.0 mm 0.00 in0.0 mm
03:30 AM 63.5°F17.5°C 48.8°F9.3°C 59% 3.0 mph SW4.8 kmh SW 8.4 mph13.5 kmh 29.00 in982.1 mb 0.00 in0.0 mm 0.00 in0.0 mm 0.00 in0.0 mm
03:29 AM 63.5°F17.5°C 48.8°F9.3°C 59% 3.0 mph SW4.8 kmh SW 8.4 mph13.5 kmh 29.00 in982.1 mb 0.00 in0.0 mm 0.00 in0.0 mm 0.00 in0.0 mm
03:28 AM 63.5°F17.5°C 48.8°F9.3°C 59% 4.3 mph SW6.9 kmh SW 8.4 mph13.5 kmh 29.00 in982.1 mb 0.00 in0.0 mm 0.00 in0.0 mm 0.00 in0.0 mm
03:27 AM 63.5°F17.5°C 48.8°F9.3°C 59% 3.7 mph WSW6.0 kmh WSW 8.4 mph13.5 kmh 29.00 in982.1 mb 0.00 in0.0 mm 0.00 in0.0 mm 0.00 in0.0 mm
03:26 AM 63.5°F17.5°C 48.8°F9.3°C 59% 3.4 mph WSW5.5 kmh WSW 8.4 mph13.5 kmh 29.00 in982.1 mb 0.00 in0.0 mm 0.00 in0.0 mm 0.00 in0.0 mm
03:25 AM 63.5°F17.5°C 48.3°F9.1°C 57% 3.7 mph WSW6.0 kmh WSW 8.4 mph13.5 kmh 29.00 in982.1 mb 0.00 in0.0 mm 0.00 in0.0 mm 0.00 in0.0 mm
03:24 AM 63.5°F17.5°C 48.3°F9.1°C 57% 3.4 mph WSW5.5 kmh WSW 8.4 mph13.5 kmh 29.00 in982.1 mb 0.00 in0.0 mm 0.00 in0.0 mm 0.00 in0.0 mm
03:23 AM 63.5°F17.5°C 48.3°F9.1°C 57% 3.5 mph WSW5.6 kmh WSW 8.4 mph13.5 kmh 29.00 in982.1 mb 0.00 in0.0 mm 0.00 in0.0 mm 0.00 in0.0 mm
03:22 AM 63.5°F17.5°C 48.3°F9.1°C 57% 3.5 mph WSW5.6 kmh WSW 8.4 mph13.5 kmh 29.00 in982.1 mb 0.00 in0.0 mm 0.00 in0.0 mm 0.00 in0.0 mm
03:21 AM 63.5°F17.5°C 48.3°F9.1°C 57% 3.1 mph WSW5.0 kmh WSW 8.4 mph13.5 kmh 29.00 in982.1 mb 0.00 in0.0 mm 0.00 in0.0 mm 0.00 in0.0 mm
03:20 AM 63.5°F17.5°C 48.3°F9.1°C 57% 3.5 mph WSW5.6 kmh WSW 7.8 mph12.6 kmh 29.00 in982.1 mb 0.00 in0.0 mm 0.00 in0.0 mm 0.00 in0.0 mm
03:19 AM 63.5°F17.5°C 48.3°F9.1°C 57% 3.6 mph WSW5.8 kmh WSW 7.8 mph12.6 kmh 29.00 in982.1 mb 0.00 in0.0 mm 0.00 in0.0 mm 0.00 in0.0 mm
03:18 AM 63.5°F17.5°C 48.3°F9.1°C 57% 3.1 mph WSW5.0 kmh WSW 7.8 mph12.6 kmh 29.00 in982.1 mb 0.00 in0.0 mm 0.00 in0.0 mm 0.00 in0.0 mm
03:17 AM 63.5°F17.5°C 48.3°F9.1°C 57% 3.3 mph WSW5.3 kmh WSW 7.8 mph12.6 kmh 29.00 in982.1 mb 0.00 in0.0 mm 0.00 in0.0 mm 0.00 in0.0 mm
03:16 AM 63.5°F17.5°C 48.3°F9.1°C 57% 3.9 mph WSW6.3 kmh WSW 7.8 mph12.6 kmh 29.00 in982.1 mb 0.00 in0.0 mm 0.00 in0.0 mm 0.00 in0.0 mm
03:15 AM 63.5°F17.5°C 48.3°F9.1°C 57% 4.2 mph WSW6.8 kmh WSW 7.8 mph12.6 kmh 29.00 in982.1 mb 0.00 in0.0 mm 0.00 in0.0 mm 0.00 in0.0 mm
03:14 AM 63.5°F17.5°C 48.3°F9.1°C 57% 4.9 mph SW7.9 kmh SW 7.8 mph12.6 kmh 29.00 in982.1 mb 0.00 in0.0 mm 0.00 in0.0 mm 0.00 in0.0 mm
03:13 AM 63.5°F17.5°C 48.3°F9.1°C 57% 4.1 mph SW6.6 kmh SW 7.8 mph12.6 kmh 29.00 in982.1 mb 0.00 in0.0 mm 0.00 in0.0 mm 0.00 in0.0 mm
03:12 AM 63.5°F17.5°C 48.3°F9.1°C 57% 3.1 mph SW5.0 kmh SW 7.8 mph12.6 kmh 29.00 in982.1 mb 0.00 in0.0 mm 0.00 in0.0 mm 0.00 in0.0 mm
03:11 AM 63.5°F17.5°C 48.3°F9.1°C 57% 4.0 mph SW6.4 kmh SW 7.1 mph11.4 kmh 29.00 in982.1 mb 0.00 in0.0 mm 0.00 in0.0 mm 0.00 in0.0 mm
03:09 AM 63.5°F17.5°C 48.3°F9.1°C 57% 4.4 mph WSW7.1 kmh WSW 7.1 mph11.4 kmh 29.00 in982.1 mb 0.00 in0.0 mm 0.00 in0.0 mm 0.00 in0.0 mm
03:08 AM 63.7°F17.6°C 47.9°F8.8°C 56% 3.7 mph WSW6.0 kmh WSW 7.1 mph11.4 kmh 29.00 in982.1 mb 0.00 in0.0 mm 0.00 in0.0 mm 0.00 in0.0 mm
03:07 AM 63.7°F17.6°C 47.9°F8.8°C 56% 3.3 mph SW5.3 kmh SW 5.8 mph9.3 kmh 29.00 in982.1 mb 0.00 in0.0 mm 0.00 in0.0 mm 0.00 in0.0 mm
03:06 AM 63.7°F17.6°C 47.9°F8.8°C 56% 3.5 mph SW5.6 kmh SW 5.8 mph9.3 kmh 29.00 in982.1 mb 0.00 in0.0 mm 0.00 in0.0 mm 0.00 in0.0 mm
03:05 AM 63.7°F17.6°C 47.9°F8.8°C 56% 3.1 mph WSW5.0 kmh WSW 5.8 mph9.3 kmh 29.00 in982.1 mb 0.00 in0.0 mm 0.00 in0.0 mm 0.00 in0.0 mm
03:04 AM 63.7°F17.6°C 47.9°F8.8°C 56% 3.4 mph WSW5.5 kmh WSW 8.4 mph13.5 kmh 29.00 in982.1 mb 0.00 in0.0 mm 0.00 in0.0 mm 0.00 in0.0 mm
03:03 AM 63.7°F17.6°C 47.9°F8.8°C 56% 4.5 mph WSW7.2 kmh WSW 8.4 mph13.5 kmh 29.00 in982.1 mb 0.00 in0.0 mm 0.00 in0.0 mm 0.00 in0.0 mm
03:02 AM 63.9°F17.7°C 48.1°F8.9°C 56% 4.3 mph WSW6.9 kmh WSW 8.4 mph13.5 kmh 29.00 in982.1 mb 0.00 in0.0 mm 0.00 in0.0 mm 0.00 in0.0 mm
03:01 AM 63.9°F17.7°C 48.1°F8.9°C 56% 3.5 mph WSW5.6 kmh WSW 8.4 mph13.5 kmh 29.00 in982.1 mb 0.00 in0.0 mm 0.00 in0.0 mm 0.00 in0.0 mm
03:00 AM 63.9°F17.7°C 48.1°F8.9°C 56% 3.7 mph WSW6.0 kmh WSW 8.4 mph13.5 kmh 29.00 in982.1 mb 0.00 in0.0 mm 0.00 in0.0 mm 0.00 in0.0 mm
02:59 AM 63.9°F17.7°C 48.1°F8.9°C 56% 3.7 mph WSW6.0 kmh WSW 8.4 mph13.5 kmh 29.00 in982.1 mb 0.00 in0.0 mm 0.00 in0.0 mm 0.00 in0.0 mm
02:58 AM 63.9°F17.7°C 48.1°F8.9°C 56% 3.4 mph WSW5.5 kmh WSW 8.4 mph13.5 kmh 29.00 in982.1 mb 0.00 in0.0 mm 0.00 in0.0 mm 0.00 in0.0 mm
02:57 AM 63.9°F17.7°C 48.1°F8.9°C 56% 3.6 mph WSW5.8 kmh WSW 8.4 mph13.5 kmh 29.00 in982.1 mb 0.00 in0.0 mm 0.00 in0.0 mm 0.00 in0.0 mm
02:56 AM 63.9°F17.7°C 48.1°F8.9°C 56% 4.2 mph WSW6.8 kmh WSW 8.4 mph13.5 kmh 29.00 in982.1 mb 0.00 in0.0 mm 0.00 in0.0 mm 0.00 in0.0 mm
02:55 AM 63.9°F17.7°C 48.1°F8.9°C 56% 4.2 mph WSW6.8 kmh WSW 8.4 mph13.5 kmh 29.00 in982.1 mb 0.00 in0.0 mm 0.00 in0.0 mm 0.00 in0.0 mm
02:54 AM 63.9°F17.7°C 48.1°F8.9°C 56% 3.7 mph WSW6.0 kmh WSW 7.1 mph11.4 kmh 29.00 in982.1 mb 0.00 in0.0 mm 0.00 in0.0 mm 0.00 in0.0 mm
02:53 AM 63.9°F17.7°C 48.1°F8.9°C 56% 3.4 mph WSW5.5 kmh WSW 7.8 mph12.6 kmh 29.00 in982.1 mb 0.00 in0.0 mm 0.00 in0.0 mm 0.00 in0.0 mm
02:52 AM 63.9°F17.7°C 48.1°F8.9°C 56% 3.5 mph WSW5.6 kmh WSW 7.8 mph12.6 kmh 29.00 in982.1 mb 0.00 in0.0 mm 0.00 in0.0 mm 0.00 in0.0 mm
02:51 AM 63.9°F17.7°C 48.1°F8.9°C 56% 3.6 mph WSW5.8 kmh WSW 7.8 mph12.6 kmh 29.00 in982.1 mb 0.00 in0.0 mm 0.00 in0.0 mm 0.00 in0.0 mm
02:50 AM 63.9°F17.7°C 48.1°F8.9°C 56% 3.5 mph SW5.6 kmh SW 7.8 mph12.6 kmh 29.00 in982.1 mb 0.00 in0.0 mm 0.00 in0.0 mm 0.00 in0.0 mm
02:49 AM 63.9°F17.7°C 48.1°F8.9°C 56% 3.1 mph SW5.0 kmh SW 8.4 mph13.5 kmh 29.00 in982.1 mb 0.00 in0.0 mm 0.00 in0.0 mm 0.00 in0.0 mm
02:48 AM 63.9°F17.7°C 48.1°F8.9°C 56% 3.6 mph SW5.8 kmh SW 8.4 mph13.5 kmh 29.00 in982.1 mb 0.00 in0.0 mm 0.00 in0.0 mm 0.00 in0.0 mm
02:47 AM 63.9°F17.7°C 48.1°F8.9°C 56% 3.4 mph SW5.5 kmh SW 8.4 mph13.5 kmh 29.00 in982.1 mb 0.00 in0.0 mm 0.00 in0.0 mm 0.00 in0.0 mm
02:46 AM 63.9°F17.7°C 48.1°F8.9°C 56% 4.3 mph SW6.9 kmh SW 8.4 mph13.5 kmh 29.00 in982.1 mb 0.00 in0.0 mm 0.00 in0.0 mm 0.00 in0.0 mm
02:45 AM 63.9°F17.7°C 48.1°F8.9°C 56% 5.1 mph WSW8.2 kmh WSW 8.4 mph13.5 kmh 29.00 in982.1 mb 0.00 in0.0 mm 0.00 in0.0 mm 0.00 in0.0 mm
02:44 AM 63.9°F17.7°C 48.1°F8.9°C 56% 4.4 mph WSW7.1 kmh WSW 9.1 mph14.6 kmh 29.00 in982.1 mb 0.00 in0.0 mm 0.00 in0.0 mm 0.00 in0.0 mm
02:43 AM 63.9°F17.7°C 48.1°F8.9°C 56% 4.4 mph WSW7.1 kmh WSW 9.1 mph14.6 kmh 29.00 in982.1 mb 0.00 in0.0 mm 0.00 in0.0 mm 0.00 in0.0 mm
02:42 AM 63.9°F17.7°C 48.1°F8.9°C 56% 5.4 mph WSW8.7 kmh WSW 9.1 mph14.6 kmh 29.00 in982.1 mb 0.00 in0.0 mm 0.00 in0.0 mm 0.00 in0.0 mm
02:41 AM 63.9°F17.7°C 48.1°F8.9°C 56% 5.7 mph WSW9.2 kmh WSW 9.1 mph14.6 kmh 29.00 in982.1 mb 0.00 in0.0 mm 0.00 in0.0 mm 0.00 in0.0 mm
02:40 AM 63.9°F17.7°C 48.1°F8.9°C 56% 5.4 mph WSW8.7 kmh WSW 9.1 mph14.6 kmh 29.00 in982.1 mb 0.00 in0.0 mm 0.00 in0.0 mm 0.00 in0.0 mm
02:39 AM 64.0°F17.8°C 48.2°F9.0°C 56% 3.9 mph WSW6.3 kmh WSW 9.1 mph14.6 kmh 29.00 in982.1 mb 0.00 in0.0 mm 0.00 in0.0 mm 0.00 in0.0 mm
02:38 AM 64.0°F17.8°C 48.2°F9.0°C 56% 3.8 mph SW6.1 kmh SW 9.1 mph14.6 kmh 29.00 in982.1 mb 0.00 in0.0 mm 0.00 in0.0 mm 0.00 in0.0 mm
02:37 AM 64.0°F17.8°C 48.2°F9.0°C 56% 4.1 mph SW6.6 kmh SW 9.1 mph14.6 kmh 29.00 in982.1 mb 0.00 in0.0 mm 0.00 in0.0 mm 0.00 in0.0 mm
02:36 AM 64.0°F17.8°C 48.2°F9.0°C 56% 4.0 mph SW6.4 kmh SW 9.1 mph14.6 kmh 29.00 in982.1 mb 0.00 in0.0 mm 0.00 in0.0 mm 0.00 in0.0 mm
02:35 AM 64.0°F17.8°C 48.3°F9.1°C 56% 4.0 mph SW6.4 kmh SW 9.1 mph14.6 kmh 29.00 in982.1 mb 0.00 in0.0 mm 0.00 in0.0 mm 0.00 in0.0 mm
02:34 AM 64.0°F17.8°C 48.3°F9.1°C 56% 3.7 mph SW6.0 kmh SW 9.1 mph14.6 kmh 29.00 in982.1 mb 0.00 in0.0 mm 0.00 in0.0 mm 0.00 in0.0 mm
02:33 AM 64.0°F17.8°C 48.3°F9.1°C 56% 3.6 mph SW5.8 kmh SW 7.8 mph12.6 kmh 29.00 in982.1 mb 0.00 in0.0 mm 0.00 in0.0 mm 0.00 in0.0 mm
02:32 AM 64.0°F17.8°C 47.7°F8.7°C 55% 4.2 mph SW6.8 kmh SW 7.8 mph12.6 kmh 29.00 in982.1 mb 0.00 in0.0 mm 0.00 in0.0 mm 0.00 in0.0 mm
02:31 AM 64.0°F17.8°C 47.7°F8.7°C 55% 3.9 mph SW6.3 kmh SW 7.8 mph12.6 kmh 29.00 in982.1 mb 0.00 in0.0 mm 0.00 in0.0 mm 0.00 in0.0 mm
02:30 AM 64.0°F17.8°C 47.7°F8.7°C 55% 3.4 mph SW5.5 kmh SW 7.8 mph12.6 kmh 29.00 in982.1 mb 0.00 in0.0 mm 0.00 in0.0 mm 0.00 in0.0 mm
02:29 AM 64.0°F17.8°C 47.7°F8.7°C 55% 3.4 mph SW5.5 kmh SW 7.8 mph12.6 kmh 29.00 in982.1 mb 0.00 in0.0 mm 0.00 in0.0 mm 0.00 in0.0 mm
02:28 AM 64.0°F17.8°C 47.7°F8.7°C 55% 3.7 mph WSW6.0 kmh WSW 7.8 mph12.6 kmh 29.00 in982.1 mb 0.00 in0.0 mm 0.00 in0.0 mm 0.00 in0.0 mm
02:27 AM 64.0°F17.8°C 47.7°F8.7°C 55% 3.7 mph WSW6.0 kmh WSW 8.4 mph13.5 kmh 29.00 in982.1 mb 0.00 in0.0 mm 0.00 in0.0 mm 0.00 in0.0 mm
02:26 AM 64.0°F17.8°C 47.7°F8.7°C 55% 3.7 mph WSW6.0 kmh WSW 8.4 mph13.5 kmh 29.00 in982.1 mb 0.00 in0.0 mm 0.00 in0.0 mm 0.00 in0.0 mm
02:25 AM 64.0°F17.8°C 47.7°F8.7°C 55% 3.1 mph WSW5.0 kmh WSW 8.4 mph13.5 kmh 29.00 in982.1 mb 0.00 in0.0 mm 0.00 in0.0 mm 0.00 in0.0 mm
02:24 AM 64.0°F17.8°C 47.7°F8.7°C 55% 3.6 mph WSW5.8 kmh WSW 8.4 mph13.5 kmh 29.00 in982.1 mb 0.00 in0.0 mm 0.00 in0.0 mm 0.00 in0.0 mm
02:23 AM 64.0°F17.8°C 47.7°F8.7°C 55% 4.3 mph WSW6.9 kmh WSW 8.4 mph13.5 kmh 29.00 in982.1 mb 0.00 in0.0 mm 0.00 in0.0 mm 0.00 in0.0 mm
02:22 AM 64.2°F17.9°C 47.9°F8.8°C 55% 4.5 mph WSW7.2 kmh WSW 8.4 mph13.5 kmh 29.00 in982.1 mb 0.00 in0.0 mm 0.00 in0.0 mm 0.00 in0.0 mm
02:21 AM 64.2°F17.9°C 47.9°F8.8°C 55% 3.5 mph SW5.6 kmh SW 8.4 mph13.5 kmh 29.00 in982.1 mb 0.00 in0.0 mm 0.00 in0.0 mm 0.00 in0.0 mm
02:20 AM 64.2°F17.9°C 47.9°F8.8°C 55% 3.9 mph SW6.3 kmh SW 8.4 mph13.5 kmh 29.00 in982.1 mb 0.00 in0.0 mm 0.00 in0.0 mm 0.00 in0.0 mm
02:19 AM 64.2°F17.9°C 47.9°F8.8°C 55% 3.9 mph WSW6.3 kmh WSW 8.4 mph13.5 kmh 29.00 in982.1 mb 0.00 in0.0 mm 0.00 in0.0 mm 0.00 in0.0 mm
02:18 AM 64.2°F17.9°C 47.9°F8.8°C 55% 3.6 mph WSW5.8 kmh WSW 8.4 mph13.5 kmh 29.00 in982.1 mb 0.00 in0.0 mm 0.00 in0.0 mm 0.00 in0.0 mm
02:17 AM 64.2°F17.9°C 47.9°F8.8°C 55% 3.9 mph WSW6.3 kmh WSW 8.4 mph13.5 kmh 29.00 in982.1 mb 0.00 in0.0 mm 0.00 in0.0 mm 0.00 in0.0 mm
02:16 AM 64.2°F17.9°C 47.9°F8.8°C 55% 3.7 mph WSW6.0 kmh WSW 8.4 mph13.5 kmh 29.00 in982.1 mb 0.00 in0.0 mm 0.00 in0.0 mm 0.00 in0.0 mm
02:15 AM 64.4°F18.0°C 48.1°F8.9°C 55% 4.0 mph WSW6.4 kmh WSW 7.8 mph12.6 kmh 29.00 in982.1 mb 0.00 in0.0 mm 0.00 in0.0 mm 0.00 in0.0 mm
02:14 AM 64.4°F18.0°C 48.1°F8.9°C 55% 4.3 mph WSW6.9 kmh WSW 7.8 mph12.6 kmh 29.00 in982.1 mb 0.00 in0.0 mm 0.00 in0.0 mm 0.00 in0.0 mm
02:13 AM 64.4°F18.0°C 48.1°F8.9°C 55% 3.7 mph WSW6.0 kmh WSW 7.8 mph12.6 kmh 29.00 in982.1 mb 0.00 in0.0 mm 0.00 in0.0 mm 0.00 in0.0 mm
02:12 AM 64.4°F18.0°C 48.1°F8.9°C 55% 3.7 mph WSW6.0 kmh WSW 7.8 mph12.6 kmh 29.00 in982.1 mb 0.00 in0.0 mm 0.00 in0.0 mm 0.00 in0.0 mm
02:11 AM 64.4°F18.0°C 47.5°F8.6°C 54% 3.4 mph WSW5.5 kmh WSW 7.8 mph12.6 kmh 29.00 in982.1 mb 0.00 in0.0 mm 0.00 in0.0 mm 0.00 in0.0 mm
02:10 AM 64.4°F18.0°C 47.5°F8.6°C 54% 3.4 mph WSW5.5 kmh WSW 7.8 mph12.6 kmh 29.00 in982.1 mb 0.00 in0.0 mm 0.00 in0.0 mm 0.00 in0.0 mm
02:09 AM 64.4°F18.0°C 47.5°F8.6°C 54% 3.5 mph WSW5.6 kmh WSW 7.8 mph12.6 kmh 29.00 in982.1 mb 0.00 in0.0 mm 0.00 in0.0 mm 0.00 in0.0 mm
02:08 AM 64.4°F18.0°C 47.5°F8.6°C 54% 3.0 mph WSW4.8 kmh WSW 7.8 mph12.6 kmh 29.00 in982.1 mb 0.00 in0.0 mm 0.00 in0.0 mm 0.00 in0.0 mm
02:07 AM 64.4°F18.0°C 47.5°F8.6°C 54% 3.4 mph WSW5.5 kmh WSW 5.8 mph9.3 kmh 29.00 in982.1 mb 0.00 in0.0 mm 0.00 in0.0 mm 0.00 in0.0 mm
02:06 AM 64.4°F18.0°C 47.5°F8.6°C 54% 3.8 mph WSW6.1 kmh WSW 5.8 mph9.3 kmh 29.00 in982.1 mb 0.00 in0.0 mm 0.00 in0.0 mm 0.00 in0.0 mm
02:05 AM 64.4°F18.0°C 47.5°F8.6°C 54% 3.5 mph WSW5.6 kmh WSW 5.8 mph9.3 kmh 29.00 in982.1 mb 0.00 in0.0 mm 0.00 in0.0 mm 0.00 in0.0 mm
02:04 AM 64.4°F18.0°C 47.5°F8.6°C 54% 3.1 mph WSW5.0 kmh WSW 5.8 mph9.3 kmh 29.00 in982.1 mb 0.00 in0.0 mm 0.00 in0.0 mm 0.00 in0.0 mm
02:03 AM 64.4°F18.0°C 47.5°F8.6°C 54% 3.0 mph WSW4.8 kmh WSW 5.8 mph9.3 kmh 29.00 in982.1 mb 0.00 in0.0 mm 0.00 in0.0 mm 0.00 in0.0 mm
02:02 AM 64.4°F18.0°C 47.5°F8.6°C 54% 3.4 mph WSW5.5 kmh WSW 5.8 mph9.3 kmh 29.00 in982.1 mb 0.00 in0.0 mm 0.00 in0.0 mm 0.00 in0.0 mm
02:01 AM 64.4°F18.0°C 47.5°F8.6°C 54% 3.6 mph WSW5.8 kmh WSW 5.8 mph9.3 kmh 29.00 in982.1 mb 0.00 in0.0 mm 0.00 in0.0 mm 0.00 in0.0 mm
02:00 AM 64.4°F18.0°C 47.5°F8.6°C 54% Calm Calm 5.8 mph9.3 kmh 29.00 in982.1 mb 0.00 in0.0 mm 0.00 in0.0 mm 0.00 in0.0 mm
01:59 AM 64.4°F18.0°C 47.5°F8.6°C 54% 3.1 mph WSW5.0 kmh WSW 5.8 mph9.3 kmh 29.00 in982.1 mb 0.00 in0.0 mm 0.00 in0.0 mm 0.00 in0.0 mm
01:58 AM 64.4°F18.0°C 47.5°F8.6°C 54% 3.4 mph WSW5.5 kmh WSW 6.5 mph10.5 kmh 29.00 in982.1 mb 0.00 in0.0 mm 0.00 in0.0 mm 0.00 in0.0 mm
01:57 AM 64.4°F18.0°C 47.5°F8.6°C 54% 3.4 mph WSW5.5 kmh WSW 6.5 mph10.5 kmh 29.00 in982.1 mb 0.00 in0.0 mm 0.00 in0.0 mm 0.00 in0.0 mm
01:56 AM 64.4°F18.0°C 47.5°F8.6°C 54% 4.0 mph WSW6.4 kmh WSW 6.5 mph10.5 kmh 29.00 in982.1 mb 0.00 in0.0 mm 0.00 in0.0 mm 0.00 in0.0 mm
01:55 AM 64.6°F18.1°C 47.7°F8.7°C 54% 4.2 mph WSW6.8 kmh WSW 6.5 mph10.5 kmh 29.00 in982.1 mb 0.00 in0.0 mm 0.00 in0.0 mm 0.00 in0.0 mm
01:54 AM 64.6°F18.1°C 47.7°F8.7°C 54% 3.7 mph WSW6.0 kmh WSW 6.5 mph10.5 kmh 29.00 in982.1 mb 0.00 in0.0 mm 0.00 in0.0 mm 0.00 in0.0 mm
01:53 AM 64.6°F18.1°C 47.7°F8.7°C 54% 3.7 mph WSW6.0 kmh WSW 6.5 mph10.5 kmh 29.00 in982.1 mb 0.00 in0.0 mm 0.00 in0.0 mm 0.00 in0.0 mm
01:52 AM 64.6°F18.1°C 47.7°F8.7°C 54% Calm Calm 6.5 mph10.5 kmh 29.00 in982.1 mb 0.00 in0.0 mm 0.00 in0.0 mm 0.00 in0.0 mm
01:51 AM 64.6°F18.1°C 47.7°F8.7°C 54% Calm Calm 6.5 mph10.5 kmh 29.00 in982.1 mb 0.00 in0.0 mm 0.00 in0.0 mm 0.00 in0.0 mm
01:50 AM 64.6°F18.1°C 47.7°F8.7°C 54% 3.0 mph WSW4.8 kmh WSW 6.5 mph10.5 kmh 29.00 in982.1 mb 0.00 in0.0 mm 0.00 in0.0 mm 0.00 in0.0 mm
01:49 AM 64.6°F18.1°C 47.7°F8.7°C 54% 3.4 mph WSW5.5 kmh WSW 6.5 mph10.5 kmh 29.00 in982.1 mb 0.00 in0.0 mm 0.00 in0.0 mm 0.00 in0.0 mm
01:48 AM 64.6°F18.1°C 47.7°F8.7°C 54% 3.7 mph WSW6.0 kmh WSW 5.8 mph9.3 kmh 29.00 in982.1 mb 0.00 in0.0 mm 0.00 in0.0 mm 0.00 in0.0 mm
01:47 AM 64.4°F18.0°C 47.5°F8.6°C 54% Calm Calm 5.8 mph9.3 kmh 29.00 in982.1 mb 0.00 in0.0 mm 0.00 in0.0 mm 0.00 in0.0 mm
01:46 AM 64.4°F18.0°C 47.5°F8.6°C 54% 3.7 mph SW6.0 kmh SW 5.8 mph9.3 kmh 29.00 in982.1 mb 0.00 in0.0 mm 0.00 in0.0 mm 0.00 in0.0 mm
01:45 AM 64.4°F18.0°C 47.5°F8.6°C 54% 3.7 mph SW6.0 kmh SW 5.8 mph9.3 kmh 29.00 in982.1 mb 0.00 in0.0 mm 0.00 in0.0 mm 0.00 in0.0 mm
01:44 AM 64.4°F18.0°C 47.5°F8.6°C 54% 3.7 mph SW6.0 kmh SW 5.8 mph9.3 kmh 29.00 in982.1 mb 0.00 in0.0 mm 0.00 in0.0 mm 0.00 in0.0 mm
01:43 AM 64.4°F18.0°C 47.5°F8.6°C 54% 3.7 mph SW6.0 kmh SW 5.8 mph9.3 kmh 29.00 in982.1 mb 0.00 in0.0 mm 0.00 in0.0 mm 0.00 in0.0 mm
01:42 AM 64.2°F17.9°C 47.3°F8.5°C 54% 3.0 mph WSW4.8 kmh WSW 5.8 mph9.3 kmh 29.00 in982.1 mb 0.00 in0.0 mm 0.00 in0.0 mm 0.00 in0.0 mm
01:41 AM 64.2°F17.9°C 47.4°F8.6°C 54% 3.0 mph WSW4.8 kmh WSW 5.8 mph9.3 kmh 29.00 in982.1 mb 0.00 in0.0 mm 0.00 in0.0 mm 0.00 in0.0 mm
01:40 AM 64.2°F17.9°C 47.4°F8.6°C 54% 3.0 mph WSW4.8 kmh WSW 5.8 mph9.3 kmh 29.00 in982.1 mb 0.00 in0.0 mm 0.00 in0.0 mm 0.00 in0.0 mm
01:39 AM 64.2°F17.9°C 47.4°F8.6°C 54% 3.7 mph WSW6.0 kmh WSW 5.8 mph9.3 kmh 29.00 in982.1 mb 0.00 in0.0 mm 0.00 in0.0 mm 0.00 in0.0 mm
01:38 AM 64.0°F17.8°C 47.2°F8.4°C 54% 3.9 mph WSW6.3 kmh WSW 5.8 mph9.3 kmh 29.00 in982.1 mb 0.00 in0.0 mm 0.00 in0.0 mm 0.00 in0.0 mm
01:37 AM 64.0°F17.8°C 47.2°F8.4°C 54% 3.6 mph WSW5.8 kmh WSW 5.8 mph9.3 kmh 29.00 in982.1 mb 0.00 in0.0 mm 0.00 in0.0 mm 0.00 in0.0 mm
01:36 AM 63.9°F17.7°C 47.1°F8.4°C 54% 3.4 mph WSW5.5 kmh WSW 5.8 mph9.3 kmh 29.00 in982.1 mb 0.00 in0.0 mm 0.00 in0.0 mm 0.00 in0.0 mm
01:35 AM 63.9°F17.7°C 47.1°F8.4°C 54% 3.7 mph WSW6.0 kmh WSW 5.2 mph8.4 kmh 29.00 in982.1 mb 0.00 in0.0 mm 0.00 in0.0 mm 0.00 in0.0 mm
01:34 AM 63.9°F17.7°C 47.1°F8.4°C 54% 3.7 mph WSW6.0 kmh WSW 5.2 mph8.4 kmh 29.00 in982.1 mb 0.00 in0.0 mm 0.00 in0.0 mm 0.00 in0.0 mm
01:33 AM 63.9°F17.7°C 47.1°F8.4°C 54% Calm Calm 4.5 mph7.2 kmh 29.00 in982.1 mb 0.00 in0.0 mm 0.00 in0.0 mm 0.00 in0.0 mm
01:32 AM 63.7°F17.6°C 46.9°F8.3°C 54% Calm Calm 4.5 mph7.2 kmh 29.00 in982.1 mb 0.00 in0.0 mm 0.00 in0.0 mm 0.00 in0.0 mm
01:31 AM 63.7°F17.6°C 46.9°F8.3°C 54% Calm Calm 4.5 mph7.2 kmh 29.00 in982.1 mb 0.00 in0.0 mm 0.00 in0.0 mm 0.00 in0.0 mm
01:30 AM 63.7°F17.6°C 46.3°F7.9°C 53% Calm Calm 4.5 mph7.2 kmh 29.00 in982.1 mb 0.00 in0.0 mm 0.00 in0.0 mm 0.00 in0.0 mm
01:29 AM 63.7°F17.6°C 46.3°F7.9°C 53% Calm Calm 4.5 mph7.2 kmh 29.00 in982.1 mb 0.00 in0.0 mm 0.00 in0.0 mm 0.00 in0.0 mm
01:28 AM 63.7°F17.6°C 46.3°F7.9°C 53% Calm Calm 3.2 mph5.1 kmh 29.00 in982.1 mb 0.00 in0.0 mm 0.00 in0.0 mm 0.00 in0.0 mm
01:27 AM 63.7°F17.6°C 46.3°F7.9°C 53% Calm Calm 3.2 mph5.1 kmh 29.00 in982.1 mb 0.00 in0.0 mm 0.00 in0.0 mm 0.00 in0.0 mm
01:26 AM 63.7°F17.6°C 46.3°F7.9°C 53% Calm Calm -- 29.00 in982.1 mb 0.00 in0.0 mm 0.00 in0.0 mm 0.00 in0.0 mm
01:25 AM 63.9°F17.7°C 46.5°F8.1°C 53% Calm Calm -- 29.00 in982.1 mb 0.00 in0.0 mm 0.00 in0.0 mm 0.00 in0.0 mm
01:24 AM 63.9°F17.7°C 46.5°F8.1°C 53% Calm Calm -- 29.00 in982.1 mb 0.00 in0.0 mm 0.00 in0.0 mm 0.00 in0.0 mm
01:23 AM 63.9°F17.7°C 46.5°F8.1°C 53% Calm Calm -- 29.00 in982.1 mb 0.00 in0.0 mm 0.00 in0.0 mm 0.00 in0.0 mm
01:22 AM 64.0°F17.8°C 46.6°F8.1°C 53% Calm Calm -- 29.00 in982.1 mb 0.00 in0.0 mm 0.00 in0.0 mm 0.00 in0.0 mm
01:21 AM 64.0°F17.8°C 46.6°F8.1°C 53% Calm Calm -- 29.00 in982.1 mb 0.00 in0.0 mm 0.00 in0.0 mm 0.00 in0.0 mm
01:20 AM 64.0°F17.8°C 46.6°F8.1°C 53% Calm Calm -- 29.00 in982.1 mb 0.00 in0.0 mm 0.00 in0.0 mm 0.00 in0.0 mm
01:19 AM 64.2°F17.9°C 46.8°F8.2°C 53% Calm Calm -- 29.00 in982.1 mb 0.00 in0.0 mm 0.00 in0.0 mm 0.00 in0.0 mm
01:18 AM 64.2°F17.9°C 46.8°F8.2°C 53% Calm Calm -- 29.00 in982.1 mb 0.00 in0.0 mm 0.00 in0.0 mm 0.00 in0.0 mm
01:17 AM 64.4°F18.0°C 47.0°F8.3°C 53% Calm Calm -- 29.00 in982.1 mb 0.00 in0.0 mm 0.00 in0.0 mm 0.00 in0.0 mm
01:16 AM 64.4°F18.0°C 47.0°F8.3°C 53% Calm Calm 3.2 mph5.1 kmh 29.00 in982.1 mb 0.00 in0.0 mm 0.00 in0.0 mm 0.00 in0.0 mm
01:15 AM 64.4°F18.0°C 47.0°F8.3°C 53% Calm Calm 3.2 mph5.1 kmh 29.00 in982.1 mb 0.00 in0.0 mm 0.00 in0.0 mm 0.00 in0.0 mm
01:14 AM 64.6°F18.1°C 47.2°F8.4°C 53% Calm Calm 3.2 mph5.1 kmh 29.00 in982.1 mb 0.00 in0.0 mm 0.00 in0.0 mm 0.00 in0.0 mm
01:13 AM 64.6°F18.1°C 47.2°F8.4°C 53% Calm Calm 3.2 mph5.1 kmh 29.00 in982.1 mb 0.00 in0.0 mm 0.00 in0.0 mm 0.00 in0.0 mm
01:12 AM 64.6°F18.1°C 47.2°F8.4°C 53% Calm Calm 3.2 mph5.1 kmh 29.00 in982.1 mb 0.00 in0.0 mm 0.00 in0.0 mm 0.00 in0.0 mm
01:11 AM 64.8°F18.2°C 47.3°F8.5°C 53% Calm Calm 3.9 mph6.3 kmh 29.00 in982.1 mb 0.00 in0.0 mm 0.00 in0.0 mm 0.00 in0.0 mm
01:10 AM 64.8°F18.2°C 47.3°F8.5°C 53% Calm Calm 4.5 mph7.2 kmh 29.00 in982.1 mb 0.00 in0.0 mm 0.00 in0.0 mm 0.00 in0.0 mm
01:09 AM 64.8°F18.2°C 47.3°F8.5°C 53% Calm Calm 5.2 mph8.4 kmh 29.00 in982.1 mb 0.00 in0.0 mm 0.00 in0.0 mm 0.00 in0.0 mm
01:08 AM 64.6°F18.1°C 47.2°F8.4°C 53% Calm Calm 5.2 mph8.4 kmh 29.00 in982.1 mb 0.00 in0.0 mm 0.00 in0.0 mm 0.00 in0.0 mm
01:07 AM 64.6°F18.1°C 47.2°F8.4°C 53% Calm Calm 5.2 mph8.4 kmh 29.00 in982.1 mb 0.00 in0.0 mm 0.00 in0.0 mm 0.00 in0.0 mm
01:06 AM 64.6°F18.1°C 47.2°F8.4°C 53% Calm Calm 5.2 mph8.4 kmh 29.00 in982.1 mb 0.00 in0.0 mm 0.00 in0.0 mm 0.00 in0.0 mm
01:05 AM 64.4°F18.0°C 47.0°F8.3°C 53% Calm Calm 6.5 mph10.5 kmh 29.00 in982.1 mb 0.00 in0.0 mm 0.00 in0.0 mm 0.00 in0.0 mm
01:04 AM 64.4°F18.0°C 47.0°F8.3°C 53% Calm Calm 6.5 mph10.5 kmh 29.00 in982.1 mb 0.00 in0.0 mm 0.00 in0.0 mm 0.00 in0.0 mm
01:03 AM 64.4°F18.0°C 47.0°F8.3°C 53% 3.7 mph WSW6.0 kmh WSW 6.5 mph10.5 kmh 29.00 in982.1 mb 0.00 in0.0 mm 0.00 in0.0 mm 0.00 in0.0 mm
01:02 AM 64.2°F17.9°C 46.8°F8.2°C 53% 3.7 mph WSW6.0 kmh WSW 6.5 mph10.5 kmh 29.00 in982.1 mb 0.00 in0.0 mm 0.00 in0.0 mm 0.00 in0.0 mm
01:01 AM 64.2°F17.9°C 46.8°F8.2°C 53% 3.7 mph WSW6.0 kmh WSW 6.5 mph10.5 kmh 29.00 in982.1 mb 0.00 in0.0 mm 0.00 in0.0 mm 0.00 in0.0 mm
01:00 AM 64.2°F17.9°C 46.8°F8.2°C 53% 3.0 mph WSW4.8 kmh WSW 6.5 mph10.5 kmh 29.00 in982.1 mb 0.00 in0.0 mm 0.00 in0.0 mm 0.00 in0.0 mm
12:59 AM 64.2°F17.9°C 46.8°F8.2°C 53% 3.1 mph WSW5.0 kmh WSW 6.5 mph10.5 kmh 29.00 in982.1 mb 0.00 in0.0 mm 0.00 in0.0 mm 0.00 in0.0 mm
12:58 AM 64.2°F17.9°C 46.8°F8.2°C 53% 3.3 mph WSW5.3 kmh WSW 6.5 mph10.5 kmh 29.00 in982.1 mb 0.00 in0.0 mm 0.00 in0.0 mm 0.00 in0.0 mm
12:57 AM 64.0°F17.8°C 46.6°F8.1°C 53% 3.4 mph WSW5.5 kmh WSW 6.5 mph10.5 kmh 29.00 in982.1 mb 0.00 in0.0 mm 0.00 in0.0 mm 0.00 in0.0 mm
12:56 AM 63.9°F17.7°C 46.5°F8.1°C 53% 3.3 mph WSW5.3 kmh WSW 6.5 mph10.5 kmh 29.00 in982.1 mb 0.00 in0.0 mm 0.00 in0.0 mm 0.00 in0.0 mm
12:55 AM 63.9°F17.7°C 46.5°F8.1°C 53% 3.3 mph WSW5.3 kmh WSW 5.2 mph8.4 kmh 29.00 in982.1 mb 0.00 in0.0 mm 0.00 in0.0 mm 0.00 in0.0 mm
12:54 AM 63.9°F17.7°C 46.5°F8.1°C 53% 3.3 mph WSW5.3 kmh WSW 5.2 mph8.4 kmh 29.00 in982.1 mb 0.00 in0.0 mm 0.00 in0.0 mm 0.00 in0.0 mm
12:53 AM 63.7°F17.6°C 46.3°F7.9°C 53% 3.7 mph WSW6.0 kmh WSW 5.2 mph8.4 kmh 29.00 in982.1 mb 0.00 in0.0 mm 0.00 in0.0 mm 0.00 in0.0 mm
12:52 AM 63.5°F17.5°C 46.1°F7.8°C 53% 3.6 mph WSW5.8 kmh WSW 5.2 mph8.4 kmh 29.00 in982.1 mb 0.00 in0.0 mm 0.00 in0.0 mm 0.00 in0.0 mm
12:51 AM 63.5°F17.5°C 45.5°F7.5°C 52% 3.0 mph WSW4.8 kmh WSW 4.5 mph7.2 kmh 29.00 in982.1 mb 0.00 in0.0 mm 0.00 in0.0 mm 0.00 in0.0 mm
12:50 AM 63.3°F17.4°C 45.4°F7.4°C 52% 3.0 mph WSW4.8 kmh WSW 4.5 mph7.2 kmh 29.00 in982.1 mb 0.00 in0.0 mm 0.00 in0.0 mm 0.00 in0.0 mm
12:49 AM 63.1°F17.3°C 45.2°F7.3°C 52% Calm Calm 4.5 mph7.2 kmh 29.00 in982.1 mb 0.00 in0.0 mm 0.00 in0.0 mm 0.00 in0.0 mm
12:48 AM 63.1°F17.3°C 45.2°F7.3°C 52% Calm Calm 4.5 mph7.2 kmh 29.00 in982.1 mb 0.00 in0.0 mm 0.00 in0.0 mm 0.00 in0.0 mm
12:47 AM 63.1°F17.3°C 44.5°F6.9°C 51% Calm Calm 4.5 mph7.2 kmh 29.00 in982.1 mb 0.00 in0.0 mm 0.00 in0.0 mm 0.00 in0.0 mm
12:46 AM 63.1°F17.3°C 44.5°F6.9°C 51% Calm Calm 4.5 mph7.2 kmh 29.00 in982.1 mb 0.00 in0.0 mm 0.00 in0.0 mm 0.00 in0.0 mm
12:45 AM 63.1°F17.3°C 44.5°F6.9°C 51% Calm Calm 4.5 mph7.2 kmh 29.00 in982.1 mb 0.00 in0.0 mm 0.00 in0.0 mm 0.00 in0.0 mm
12:44 AM 63.1°F17.3°C 44.5°F6.9°C 51% Calm Calm 4.5 mph7.2 kmh 29.00 in982.1 mb 0.00 in0.0 mm 0.00 in0.0 mm 0.00 in0.0 mm
12:43 AM 63.1°F17.3°C 44.6°F7.0°C 51% Calm Calm 4.5 mph7.2 kmh 29.00 in982.1 mb 0.00 in0.0 mm 0.00 in0.0 mm 0.00 in0.0 mm
12:42 AM 63.1°F17.3°C 44.6°F7.0°C 51% Calm Calm -- 29.00 in982.1 mb 0.00 in0.0 mm 0.00 in0.0 mm 0.00 in0.0 mm
12:41 AM 63.1°F17.3°C 44.6°F7.0°C 51% Calm Calm 3.2 mph5.1 kmh 29.00 in982.1 mb 0.00 in0.0 mm 0.00 in0.0 mm 0.00 in0.0 mm
12:40 AM 63.1°F17.3°C 44.6°F7.0°C 51% Calm Calm 3.2 mph5.1 kmh 29.00 in982.1 mb 0.00 in0.0 mm 0.00 in0.0 mm 0.00 in0.0 mm
12:39 AM 63.1°F17.3°C 44.6°F7.0°C 51% Calm Calm 3.2 mph5.1 kmh 29.00 in982.1 mb 0.00 in0.0 mm 0.00 in0.0 mm 0.00 in0.0 mm
12:38 AM 63.3°F17.4°C 44.1°F6.7°C 50% Calm Calm 3.2 mph5.1 kmh 29.00 in982.1 mb 0.00 in0.0 mm 0.00 in0.0 mm 0.00 in0.0 mm
12:37 AM 63.3°F17.4°C 44.1°F6.7°C 50% Calm Calm 3.2 mph5.1 kmh 29.00 in982.1 mb 0.00 in0.0 mm 0.00 in0.0 mm 0.00 in0.0 mm
12:36 AM 63.3°F17.4°C 44.1°F6.7°C 50% Calm Calm 3.2 mph5.1 kmh 29.00 in982.1 mb 0.00 in0.0 mm 0.00 in0.0 mm 0.00 in0.0 mm
12:35 AM 63.3°F17.4°C 44.1°F6.7°C 50% Calm Calm 3.2 mph5.1 kmh 29.00 in982.1 mb 0.00 in0.0 mm 0.00 in0.0 mm 0.00 in0.0 mm
12:34 AM 63.3°F17.4°C 44.1°F6.7°C 50% Calm Calm 3.2 mph5.1 kmh 29.00 in982.1 mb 0.00 in0.0 mm 0.00 in0.0 mm 0.00 in0.0 mm
12:33 AM 63.3°F17.4°C 44.1°F6.7°C 50% Calm Calm 3.2 mph5.1 kmh 29.00 in982.1 mb 0.00 in0.0 mm 0.00 in0.0 mm 0.00 in0.0 mm
12:32 AM 63.3°F17.4°C 44.1°F6.7°C 50% Calm Calm 3.2 mph5.1 kmh 29.00 in982.1 mb 0.00 in0.0 mm 0.00 in0.0 mm 0.00 in0.0 mm
12:31 AM 63.5°F17.5°C 44.3°F6.8°C 50% Calm Calm -- 29.00 in982.1 mb 0.00 in0.0 mm 0.00 in0.0 mm 0.00 in0.0 mm
12:30 AM 63.5°F17.5°C 44.3°F6.8°C 50% Calm Calm -- 29.00 in982.1 mb 0.00 in0.0 mm 0.00 in0.0 mm 0.00 in0.0 mm
12:29 AM 63.5°F17.5°C 44.3°F6.8°C 50% Calm Calm -- 29.00 in982.1 mb 0.00 in0.0 mm 0.00 in0.0 mm 0.00 in0.0 mm
12:28 AM 63.5°F17.5°C 44.3°F6.8°C 50% Calm Calm -- 29.00 in982.1 mb 0.00 in0.0 mm 0.00 in0.0 mm 0.00 in0.0 mm
12:27 AM 63.5°F17.5°C 44.3°F6.8°C 50% Calm Calm -- 29.00 in982.1 mb 0.00 in0.0 mm 0.00 in0.0 mm 0.00 in0.0 mm
12:26 AM 63.5°F17.5°C 44.3°F6.8°C 50% Calm Calm -- 29.00 in982.1 mb 0.00 in0.0 mm 0.00 in0.0 mm 0.00 in0.0 mm
12:25 AM 63.7°F17.6°C 43.8°F6.6°C 48% Calm Calm -- 29.00 in982.1 mb 0.00 in0.0 mm 0.00 in0.0 mm 0.00 in0.0 mm
12:24 AM 63.7°F17.6°C 43.8°F6.6°C 48% Calm Calm -- 29.00 in982.1 mb 0.00 in0.0 mm 0.00 in0.0 mm 0.00 in0.0 mm
12:23 AM 63.7°F17.6°C 43.8°F6.6°C 48% Calm Calm -- 29.00 in982.1 mb 0.00 in0.0 mm 0.00 in0.0 mm 0.00 in0.0 mm
12:22 AM 63.7°F17.6°C 43.8°F6.6°C 48% Calm Calm -- 29.00 in982.1 mb 0.00 in0.0 mm 0.00 in0.0 mm 0.00 in0.0 mm
12:21 AM 63.9°F17.7°C 44.0°F6.7°C 48% Calm Calm -- 29.00 in982.1 mb 0.00 in0.0 mm 0.00 in0.0 mm 0.00 in0.0 mm
12:20 AM 63.9°F17.7°C 44.0°F6.7°C 48% Calm Calm -- 29.00 in982.1 mb 0.00 in0.0 mm 0.00 in0.0 mm 0.00 in0.0 mm
12:19 AM 63.9°F17.7°C 44.0°F6.7°C 48% Calm Calm -- 29.00 in982.1 mb 0.00 in0.0 mm 0.00 in0.0 mm 0.00 in0.0 mm
12:18 AM 63.9°F17.7°C 44.0°F6.7°C 48% Calm Calm -- 29.00 in982.1 mb 0.00 in0.0 mm 0.00 in0.0 mm 0.00 in0.0 mm
12:17 AM 63.9°F17.7°C 44.0°F6.7°C 48% Calm Calm -- 29.00 in982.1 mb 0.00 in0.0 mm 0.00 in0.0 mm 0.00 in0.0 mm
12:16 AM 63.9°F17.7°C 44.0°F6.7°C 48% Calm Calm -- 29.00 in982.1 mb 0.00 in0.0 mm 0.00 in0.0 mm 0.00 in0.0 mm
12:15 AM 63.9°F17.7°C 44.0°F6.7°C 48% Calm Calm -- 29.00 in982.1 mb 0.00 in0.0 mm 0.00 in0.0 mm 0.00 in0.0 mm
12:14 AM 64.0°F17.8°C 44.1°F6.7°C 48% Calm Calm -- 29.00 in982.1 mb 0.00 in0.0 mm 0.00 in0.0 mm 0.00 in0.0 mm
12:12 AM 64.0°F17.8°C 43.4°F6.3°C 47% Calm Calm -- 29.00 in982.1 mb 0.00 in0.0 mm 0.00 in0.0 mm 0.00 in0.0 mm
12:11 AM 64.0°F17.8°C 43.4°F6.3°C 47% Calm Calm -- 29.00 in982.1 mb 0.00 in0.0 mm 0.00 in0.0 mm 0.00 in0.0 mm
12:10 AM 64.0°F17.8°C 43.4°F6.3°C 47% Calm Calm -- 29.00 in982.1 mb 0.00 in0.0 mm 0.00 in0.0 mm 0.00 in0.0 mm
12:09 AM 64.2°F17.9°C 43.6°F6.4°C 47% Calm Calm -- 29.00 in982.1 mb 0.00 in0.0 mm 0.00 in0.0 mm 0.00 in0.0 mm
12:08 AM 64.2°F17.9°C 43.6°F6.4°C 47% Calm Calm -- 29.00 in982.1 mb 0.00 in0.0 mm 0.00 in0.0 mm 0.00 in0.0 mm
12:07 AM 64.2°F17.9°C 43.6°F6.4°C 47% Calm Calm -- 29.00 in982.1 mb 0.00 in0.0 mm 0.00 in0.0 mm 0.00 in0.0 mm
12:06 AM 64.2°F17.9°C 43.6°F6.4°C 47% Calm Calm -- 29.00 in982.1 mb 0.00 in0.0 mm 0.00 in0.0 mm 0.00 in0.0 mm
12:05 AM 64.4°F18.0°C 43.1°F6.2°C 46% Calm Calm -- 29.00 in982.1 mb 0.00 in0.0 mm 0.00 in0.0 mm 0.00 in0.0 mm
12:04 AM 64.4°F18.0°C 43.1°F6.2°C 46% Calm Calm -- 29.00 in982.1 mb 0.00 in0.0 mm 0.00 in0.0 mm 0.00 in0.0 mm
12:03 AM 64.4°F18.0°C 43.1°F6.2°C 46% Calm Calm -- 29.00 in982.1 mb 0.00 in0.0 mm 0.00 in0.0 mm 0.00 in0.0 mm
12:02 AM 64.4°F18.0°C 43.1°F6.2°C 46% Calm Calm -- 29.00 in982.1 mb 0.00 in0.0 mm 0.00 in0.0 mm 0.00 in0.0 mm
12:01 AM 64.6°F18.1°C 43.3°F6.3°C 46% Calm Calm -- 29.00 in982.1 mb 0.00 in0.0 mm 0.00 in0.0 mm 0.00 in0.0 mm
12:00 AM 64.6°F18.1°C 43.3°F6.3°C 46% Calm Calm -- 29.00 in982.1 mb 0.00 in0.0 mm 0.00 in0.0 mm 0.00 in0.0 mm